PWSweather.com
Personal Weather Stations
Station Observations
BOOMEPH
Weather On The Hill Or Not, Ephrata, PA 17522

Weather On The Hill Or NotEphrata, PA 17522

Lat: 40.17243, Lon: -76.180815

Elevation: 597

Station Type: Ambient WS 1080

Latest ConditionsUpdated 9:25:13 AM EST Friday, Nov 28, 2014
Currently Today's Max Today's Min Today's Average
Temperature 34.3°F1.3°C 34.5°F1.4°C 28.6°F-1.9°C 31.1°F-0.5°C
Dew Point 20.3°F-6.5°C 32.9°F0.5°C 19.7°F-6.8°C 26.0°F-3.3°C
Winds 5.4 mph N8.7 kmh N 9.2 mph N14.8 kmh N - 3.4 mph 5.5 kmh
Wind Gusts 9.2 mph14.8 kmh 11.4 mph18.3 kmh - -
Humidity 56% 100% 55% 82%
Pressure 30.14 in1020.7 mb 30.14 in1020.7 mb 30.00 in1015.9 mb -
Hour Temp Dew Point Humidity Winds Wind Gusts Pressure Precip Precip Rate Daily Precip Total
09:25 AM 34.3°F1.3°C 20.3°F-6.5°C 56% 5.4 mph N8.7 kmh N 9.2 mph14.8 kmh 30.14 in1020.7 mb 0.00 in0.0 mm 0.00 in/hr0.0 mm/hr 0.00 in0.0 mm
09:24 AM 34.2°F1.2°C 19.7°F-6.8°C 55% 3.8 mph N6.1 kmh N 11.4 mph18.3 kmh 30.14 in1020.7 mb 0.00 in0.0 mm 0.00 in/hr0.0 mm/hr 0.00 in0.0 mm
09:23 AM 34.3°F1.3°C 19.9°F-6.7°C 55% 4.5 mph N7.2 kmh N 11.4 mph18.3 kmh 30.14 in1020.7 mb 0.00 in0.0 mm 0.00 in/hr0.0 mm/hr 0.00 in0.0 mm
09:22 AM 34.5°F1.4°C 20.5°F-6.4°C 56% 5.4 mph N8.7 kmh N 11.4 mph18.3 kmh 30.14 in1020.7 mb 0.00 in0.0 mm 0.00 in/hr0.0 mm/hr 0.00 in0.0 mm
09:21 AM 34.5°F1.4°C 20.5°F-6.4°C 56% 4.5 mph N7.2 kmh N 11.4 mph18.3 kmh 30.14 in1020.7 mb 0.00 in0.0 mm 0.00 in/hr0.0 mm/hr 0.00 in0.0 mm
09:20 AM 34.2°F1.2°C 20.1°F-6.6°C 56% 3.1 mph N5.0 kmh N 11.4 mph18.3 kmh 30.14 in1020.7 mb 0.00 in0.0 mm 0.00 in/hr0.0 mm/hr 0.00 in0.0 mm
09:19 AM 34.2°F1.2°C 20.1°F-6.6°C 56% 3.8 mph N6.1 kmh N 11.4 mph18.3 kmh 30.14 in1020.7 mb 0.00 in0.0 mm 0.00 in/hr0.0 mm/hr 0.00 in0.0 mm
09:18 AM 34.2°F1.2°C 20.1°F-6.6°C 56% 5.4 mph N8.7 kmh N 11.4 mph18.3 kmh 30.14 in1020.7 mb 0.00 in0.0 mm 0.00 in/hr0.0 mm/hr 0.00 in0.0 mm
09:17 AM 34.2°F1.2°C 20.1°F-6.6°C 56% 5.4 mph N8.7 kmh N 11.4 mph18.3 kmh 30.14 in1020.7 mb 0.00 in0.0 mm 0.00 in/hr0.0 mm/hr 0.00 in0.0 mm
09:16 AM 34.3°F1.3°C 20.3°F-6.5°C 56% 5.4 mph N8.7 kmh N 11.4 mph18.3 kmh 30.14 in1020.7 mb 0.00 in0.0 mm 0.00 in/hr0.0 mm/hr 0.00 in0.0 mm
09:15 AM 34.0°F1.1°C 20.0°F-6.7°C 56% 3.1 mph N5.0 kmh N 11.4 mph18.3 kmh 30.14 in1020.7 mb 0.00 in0.0 mm 0.00 in/hr0.0 mm/hr 0.00 in0.0 mm
09:14 AM 34.0°F1.1°C 20.0°F-6.7°C 56% 6.9 mph NNE11.1 kmh NNE 11.4 mph18.3 kmh 30.14 in1020.7 mb 0.00 in0.0 mm 0.00 in/hr0.0 mm/hr 0.00 in0.0 mm
09:13 AM 33.8°F1.0°C 20.2°F-6.6°C 57% 6.0 mph NNE9.7 kmh NNE 9.8 mph15.8 kmh 30.14 in1020.7 mb 0.00 in0.0 mm 0.00 in/hr0.0 mm/hr 0.00 in0.0 mm
09:12 AM 33.8°F1.0°C 20.2°F-6.6°C 57% 3.8 mph NNE6.1 kmh NNE 9.8 mph15.8 kmh 30.14 in1020.7 mb 0.00 in0.0 mm 0.00 in/hr0.0 mm/hr 0.00 in0.0 mm
09:11 AM 33.8°F1.0°C 20.6°F-6.3°C 58% 5.4 mph NNE8.7 kmh NNE 9.8 mph15.8 kmh 30.14 in1020.7 mb 0.00 in0.0 mm 0.00 in/hr0.0 mm/hr 0.00 in0.0 mm
09:10 AM 34.0°F1.1°C 20.8°F-6.2°C 58% 3.8 mph NNE6.1 kmh NNE 9.8 mph15.8 kmh 30.14 in1020.7 mb 0.00 in0.0 mm 0.00 in/hr0.0 mm/hr 0.00 in0.0 mm
09:09 AM 34.0°F1.1°C 20.8°F-6.2°C 58% 3.1 mph NNE5.0 kmh NNE 9.8 mph15.8 kmh 30.14 in1020.7 mb 0.00 in0.0 mm 0.00 in/hr0.0 mm/hr 0.00 in0.0 mm
09:08 AM 33.6°F0.9°C 21.6°F-5.8°C 61% 2.2 mph NNE3.5 kmh NNE 9.8 mph15.8 kmh 30.14 in1020.7 mb 0.00 in0.0 mm 0.00 in/hr0.0 mm/hr 0.00 in0.0 mm
09:07 AM 33.3°F0.7°C 21.3°F-5.9°C 61% 3.1 mph NNE5.0 kmh NNE 9.8 mph15.8 kmh 30.14 in1020.7 mb 0.00 in0.0 mm 0.00 in/hr0.0 mm/hr 0.00 in0.0 mm
09:06 AM 33.4°F0.8°C 21.5°F-5.8°C 61% 6.0 mph NNE9.7 kmh NNE 9.8 mph15.8 kmh 30.14 in1020.7 mb 0.00 in0.0 mm 0.00 in/hr0.0 mm/hr 0.00 in0.0 mm
09:05 AM 33.3°F0.7°C 21.7°F-5.7°C 62% 5.4 mph NNE8.7 kmh NNE 9.8 mph15.8 kmh 30.14 in1020.7 mb 0.00 in0.0 mm 0.00 in/hr0.0 mm/hr 0.00 in0.0 mm
09:04 AM 33.4°F0.8°C 22.2°F-5.4°C 63% 3.1 mph N5.0 kmh N 9.8 mph15.8 kmh 30.14 in1020.7 mb 0.00 in0.0 mm 0.00 in/hr0.0 mm/hr 0.00 in0.0 mm
09:03 AM 33.3°F0.7°C 22.1°F-5.5°C 63% 3.1 mph N5.0 kmh N 9.8 mph15.8 kmh 30.14 in1020.7 mb 0.00 in0.0 mm 0.00 in/hr0.0 mm/hr 0.00 in0.0 mm
09:02 AM 33.1°F0.6°C 21.9°F-5.6°C 63% 3.1 mph N5.0 kmh N 9.8 mph15.8 kmh 30.14 in1020.7 mb 0.00 in0.0 mm 0.00 in/hr0.0 mm/hr 0.00 in0.0 mm
09:01 AM 32.9°F0.5°C 21.7°F-5.7°C 63% 3.8 mph N6.1 kmh N 9.8 mph15.8 kmh 30.14 in1020.7 mb 0.00 in0.0 mm 0.00 in/hr0.0 mm/hr 0.00 in0.0 mm
09:00 AM 32.9°F0.5°C 21.7°F-5.7°C 63% 3.8 mph N6.1 kmh N 9.8 mph15.8 kmh 30.13 in1020.3 mb 0.00 in0.0 mm 0.00 in/hr0.0 mm/hr 0.00 in0.0 mm
08:59 AM 32.7°F0.4°C 22.3°F-5.4°C 65% 5.4 mph N8.7 kmh N 10.7 mph17.2 kmh 30.13 in1020.3 mb 0.00 in0.0 mm 0.00 in/hr0.0 mm/hr 0.00 in0.0 mm
08:58 AM 32.9°F0.5°C 22.8°F-5.1°C 66% 6.9 mph NNE11.1 kmh NNE 10.7 mph17.2 kmh 30.13 in1020.3 mb 0.00 in0.0 mm 0.00 in/hr0.0 mm/hr 0.00 in0.0 mm
08:57 AM 33.4°F0.8°C 23.3°F-4.8°C 66% 5.4 mph N8.7 kmh N 10.7 mph17.2 kmh 30.13 in1020.3 mb 0.00 in0.0 mm 0.00 in/hr0.0 mm/hr 0.00 in0.0 mm
08:56 AM 33.3°F0.7°C 23.2°F-4.9°C 66% 2.2 mph N3.5 kmh N 10.7 mph17.2 kmh 30.13 in1020.3 mb 0.00 in0.0 mm 0.00 in/hr0.0 mm/hr 0.00 in0.0 mm
08:55 AM 32.9°F0.5°C 22.8°F-5.1°C 66% 2.2 mph N3.5 kmh N 10.7 mph17.2 kmh 30.13 in1020.3 mb 0.00 in0.0 mm 0.00 in/hr0.0 mm/hr 0.00 in0.0 mm
08:54 AM 32.7°F0.4°C 23.0°F-5.0°C 67% 5.4 mph N8.7 kmh N 10.7 mph17.2 kmh 30.13 in1020.3 mb 0.00 in0.0 mm 0.00 in/hr0.0 mm/hr 0.00 in0.0 mm
08:53 AM 32.9°F0.5°C 23.5°F-4.7°C 68% 5.4 mph N8.7 kmh N 10.7 mph17.2 kmh 30.13 in1020.3 mb 0.00 in0.0 mm 0.00 in/hr0.0 mm/hr 0.00 in0.0 mm
08:52 AM 32.7°F0.4°C 23.3°F-4.8°C 68% 2.2 mph N3.5 kmh N 10.7 mph17.2 kmh 30.13 in1020.3 mb 0.00 in0.0 mm 0.00 in/hr0.0 mm/hr 0.00 in0.0 mm
08:51 AM 32.7°F0.4°C 23.3°F-4.8°C 68% 6.0 mph N9.7 kmh N 10.7 mph17.2 kmh 30.13 in1020.3 mb 0.00 in0.0 mm 0.00 in/hr0.0 mm/hr 0.00 in0.0 mm
08:50 AM 32.7°F0.4°C 23.3°F-4.8°C 68% 6.0 mph N9.7 kmh N 10.7 mph17.2 kmh 30.13 in1020.3 mb 0.00 in0.0 mm 0.00 in/hr0.0 mm/hr 0.00 in0.0 mm
08:49 AM 32.7°F0.4°C 23.3°F-4.8°C 68% 4.5 mph N7.2 kmh N 10.7 mph17.2 kmh 30.13 in1020.3 mb 0.00 in0.0 mm 0.00 in/hr0.0 mm/hr 0.00 in0.0 mm
08:48 AM 32.4°F0.2°C 23.0°F-5.0°C 68% 4.5 mph NNW7.2 kmh NNW 9.8 mph15.8 kmh 30.13 in1020.3 mb 0.00 in0.0 mm 0.00 in/hr0.0 mm/hr 0.00 in0.0 mm
08:47 AM 32.5°F0.3°C 23.2°F-4.9°C 68% 6.9 mph NNW11.1 kmh NNW 9.8 mph15.8 kmh 30.13 in1020.3 mb 0.00 in0.0 mm 0.00 in/hr0.0 mm/hr 0.00 in0.0 mm
08:46 AM 32.7°F0.4°C 23.3°F-4.8°C 68% 4.5 mph NW7.2 kmh NW 9.8 mph15.8 kmh 30.13 in1020.3 mb 0.00 in0.0 mm 0.00 in/hr0.0 mm/hr 0.00 in0.0 mm
08:45 AM 32.5°F0.3°C 23.2°F-4.9°C 68% 3.8 mph NNW6.1 kmh NNW 9.8 mph15.8 kmh 30.13 in1020.3 mb 0.00 in0.0 mm 0.00 in/hr0.0 mm/hr 0.00 in0.0 mm
08:44 AM 32.4°F0.2°C 23.0°F-5.0°C 68% 4.5 mph NNW7.2 kmh NNW 9.8 mph15.8 kmh 30.13 in1020.3 mb 0.00 in0.0 mm 0.00 in/hr0.0 mm/hr 0.00 in0.0 mm
08:43 AM 32.5°F0.3°C 23.9°F-4.5°C 70% 6.0 mph N9.7 kmh N 9.8 mph15.8 kmh 30.13 in1020.3 mb 0.00 in0.0 mm 0.00 in/hr0.0 mm/hr 0.00 in0.0 mm
08:42 AM 32.5°F0.3°C 23.9°F-4.5°C 70% 4.5 mph NNW7.2 kmh NNW 9.8 mph15.8 kmh 30.13 in1020.3 mb 0.00 in0.0 mm 0.00 in/hr0.0 mm/hr 0.00 in0.0 mm
08:41 AM 32.5°F0.3°C 23.9°F-4.5°C 70% 4.5 mph N7.2 kmh N 9.8 mph15.8 kmh 30.13 in1020.3 mb 0.00 in0.0 mm 0.00 in/hr0.0 mm/hr 0.00 in0.0 mm
08:40 AM 32.5°F0.3°C 23.9°F-4.5°C 70% 4.5 mph NNW7.2 kmh NNW 9.8 mph15.8 kmh 30.13 in1020.3 mb 0.00 in0.0 mm 0.00 in/hr0.0 mm/hr 0.00 in0.0 mm
08:39 AM 32.4°F0.2°C 23.7°F-4.6°C 70% 3.1 mph N5.0 kmh N 9.8 mph15.8 kmh 30.13 in1020.3 mb 0.00 in0.0 mm 0.00 in/hr0.0 mm/hr 0.00 in0.0 mm
08:38 AM 32.4°F0.2°C 23.7°F-4.6°C 70% 3.8 mph N6.1 kmh N 9.8 mph15.8 kmh 30.13 in1020.3 mb 0.00 in0.0 mm 0.00 in/hr0.0 mm/hr 0.00 in0.0 mm
08:37 AM 32.4°F0.2°C 23.7°F-4.6°C 70% 3.8 mph N6.1 kmh N 9.8 mph15.8 kmh 30.13 in1020.3 mb 0.00 in0.0 mm 0.00 in/hr0.0 mm/hr 0.00 in0.0 mm
08:36 AM 32.4°F0.2°C 23.7°F-4.6°C 70% 5.4 mph N8.7 kmh N 9.8 mph15.8 kmh 30.13 in1020.3 mb 0.00 in0.0 mm 0.00 in/hr0.0 mm/hr 0.00 in0.0 mm
08:35 AM 32.4°F0.2°C 23.7°F-4.6°C 70% 4.5 mph N7.2 kmh N 9.8 mph15.8 kmh 30.13 in1020.3 mb 0.00 in0.0 mm 0.00 in/hr0.0 mm/hr 0.00 in0.0 mm
08:34 AM 32.4°F0.2°C 24.0°F-4.4°C 71% 4.5 mph N7.2 kmh N 9.8 mph15.8 kmh 30.13 in1020.3 mb 0.00 in0.0 mm 0.00 in/hr0.0 mm/hr 0.00 in0.0 mm
08:33 AM 32.2°F0.1°C 23.9°F-4.5°C 71% 3.8 mph N6.1 kmh N 9.8 mph15.8 kmh 30.13 in1020.3 mb 0.00 in0.0 mm 0.00 in/hr0.0 mm/hr 0.00 in0.0 mm
08:31 AM 32.4°F0.2°C 24.4°F-4.2°C 72% 3.1 mph N5.0 kmh N 9.2 mph14.8 kmh 30.13 in1020.3 mb 0.00 in0.0 mm 0.00 in/hr0.0 mm/hr 0.00 in0.0 mm
08:30 AM 32.2°F0.1°C 24.2°F-4.3°C 72% 4.5 mph N7.2 kmh N 9.2 mph14.8 kmh 30.13 in1020.3 mb 0.00 in0.0 mm 0.00 in/hr0.0 mm/hr 0.00 in0.0 mm
08:29 AM 32.2°F0.1°C 24.2°F-4.3°C 72% 3.8 mph N6.1 kmh N 6.9 mph11.1 kmh 30.13 in1020.3 mb 0.00 in0.0 mm 0.00 in/hr0.0 mm/hr 0.00 in0.0 mm
08:28 AM 31.8°F-0.1°C 24.2°F-4.3°C 73% 4.5 mph N7.2 kmh N 6.9 mph11.1 kmh 30.13 in1020.3 mb 0.00 in0.0 mm 0.00 in/hr0.0 mm/hr 0.00 in0.0 mm
08:27 AM 31.8°F-0.1°C 24.2°F-4.3°C 73% 5.4 mph N8.7 kmh N 8.3 mph13.4 kmh 30.13 in1020.3 mb 0.00 in0.0 mm 0.00 in/hr0.0 mm/hr 0.00 in0.0 mm
08:26 AM 32.0°F0.0°C 24.0°F-4.4°C 72% 3.8 mph N6.1 kmh N 8.3 mph13.4 kmh 30.13 in1020.3 mb 0.00 in0.0 mm 0.00 in/hr0.0 mm/hr 0.00 in0.0 mm
08:25 AM 32.0°F0.0°C 24.4°F-4.2°C 73% 4.5 mph N7.2 kmh N 8.3 mph13.4 kmh 30.13 in1020.3 mb 0.00 in0.0 mm 0.00 in/hr0.0 mm/hr 0.00 in0.0 mm
08:24 AM 32.0°F0.0°C 24.4°F-4.2°C 73% 3.8 mph N6.1 kmh N 8.3 mph13.4 kmh 30.13 in1020.3 mb 0.00 in0.0 mm 0.00 in/hr0.0 mm/hr 0.00 in0.0 mm
08:23 AM 31.8°F-0.1°C 24.8°F-4.0°C 75% 3.1 mph N5.0 kmh N 8.3 mph13.4 kmh 30.13 in1020.3 mb 0.00 in0.0 mm 0.00 in/hr0.0 mm/hr 0.00 in0.0 mm
08:22 AM 31.6°F-0.2°C 24.6°F-4.1°C 75% 1.6 mph N2.6 kmh N 8.3 mph13.4 kmh 30.13 in1020.3 mb 0.00 in0.0 mm 0.00 in/hr0.0 mm/hr 0.00 in0.0 mm
08:21 AM 31.6°F-0.2°C 24.6°F-4.1°C 75% 3.1 mph N5.0 kmh N 8.3 mph13.4 kmh 30.13 in1020.3 mb 0.00 in0.0 mm 0.00 in/hr0.0 mm/hr 0.00 in0.0 mm
08:20 AM 31.6°F-0.2°C 24.6°F-4.1°C 75% 3.1 mph N5.0 kmh N 8.3 mph13.4 kmh 30.13 in1020.3 mb 0.00 in0.0 mm 0.00 in/hr0.0 mm/hr 0.00 in0.0 mm
08:19 AM 31.5°F-0.3°C 24.5°F-4.2°C 75% 3.8 mph N6.1 kmh N 8.3 mph13.4 kmh 30.12 in1020.0 mb 0.00 in0.0 mm 0.00 in/hr0.0 mm/hr 0.00 in0.0 mm
08:18 AM 31.6°F-0.2°C 24.6°F-4.1°C 75% 3.1 mph N5.0 kmh N 8.3 mph13.4 kmh 30.12 in1020.0 mb 0.00 in0.0 mm 0.00 in/hr0.0 mm/hr 0.00 in0.0 mm
08:17 AM 31.6°F-0.2°C 24.6°F-4.1°C 75% 4.5 mph N7.2 kmh N 8.3 mph13.4 kmh 30.12 in1020.0 mb 0.00 in0.0 mm 0.00 in/hr0.0 mm/hr 0.00 in0.0 mm
08:16 AM 31.5°F-0.3°C 24.5°F-4.2°C 75% 3.8 mph N6.1 kmh N 8.3 mph13.4 kmh 30.12 in1020.0 mb 0.00 in0.0 mm 0.00 in/hr0.0 mm/hr 0.00 in0.0 mm
08:15 AM 31.5°F-0.3°C 24.5°F-4.2°C 75% 4.5 mph N7.2 kmh N 8.3 mph13.4 kmh 30.12 in1020.0 mb 0.00 in0.0 mm 0.00 in/hr0.0 mm/hr 0.00 in0.0 mm
08:14 AM 31.3°F-0.4°C 24.3°F-4.3°C 75% 2.2 mph N3.5 kmh N 6.0 mph9.7 kmh 30.12 in1020.0 mb 0.00 in0.0 mm 0.00 in/hr0.0 mm/hr 0.00 in0.0 mm
08:13 AM 31.6°F-0.2°C 24.6°F-4.1°C 75% 3.8 mph N6.1 kmh N 6.0 mph9.7 kmh 30.12 in1020.0 mb 0.00 in0.0 mm 0.00 in/hr0.0 mm/hr 0.00 in0.0 mm
08:12 AM 31.6°F-0.2°C 24.6°F-4.1°C 75% 3.1 mph N5.0 kmh N 6.9 mph11.1 kmh 30.12 in1020.0 mb 0.00 in0.0 mm 0.00 in/hr0.0 mm/hr 0.00 in0.0 mm
08:11 AM 31.5°F-0.3°C 24.5°F-4.2°C 75% 2.2 mph N3.5 kmh N 6.9 mph11.1 kmh 30.12 in1020.0 mb 0.00 in0.0 mm 0.00 in/hr0.0 mm/hr 0.00 in0.0 mm
08:10 AM 31.5°F-0.3°C 24.5°F-4.2°C 75% 2.2 mph N3.5 kmh N 6.9 mph11.1 kmh 30.12 in1020.0 mb 0.00 in0.0 mm 0.00 in/hr0.0 mm/hr 0.00 in0.0 mm
08:09 AM 31.3°F-0.4°C 24.3°F-4.3°C 75% 2.2 mph N3.5 kmh N 6.9 mph11.1 kmh 30.12 in1020.0 mb 0.00 in0.0 mm 0.00 in/hr0.0 mm/hr 0.00 in0.0 mm
08:08 AM 31.5°F-0.3°C 24.5°F-4.2°C 75% 3.1 mph N5.0 kmh N 6.9 mph11.1 kmh 30.12 in1020.0 mb 0.00 in0.0 mm 0.00 in/hr0.0 mm/hr 0.00 in0.0 mm
08:07 AM 31.5°F-0.3°C 24.5°F-4.2°C 75% 2.2 mph N3.5 kmh N 6.9 mph11.1 kmh 30.12 in1020.0 mb 0.00 in0.0 mm 0.00 in/hr0.0 mm/hr 0.00 in0.0 mm
08:06 AM 31.5°F-0.3°C 24.5°F-4.2°C 75% 1.6 mph N2.6 kmh N 6.9 mph11.1 kmh 30.12 in1020.0 mb 0.00 in0.0 mm 0.00 in/hr0.0 mm/hr 0.00 in0.0 mm
08:05 AM 31.3°F-0.4°C 24.3°F-4.3°C 75% 3.1 mph N5.0 kmh N 6.9 mph11.1 kmh 30.11 in1019.6 mb 0.00 in0.0 mm 0.00 in/hr0.0 mm/hr 0.00 in0.0 mm
08:04 AM 31.3°F-0.4°C 24.3°F-4.3°C 75% 2.2 mph N3.5 kmh N 6.9 mph11.1 kmh 30.12 in1020.0 mb 0.00 in0.0 mm 0.00 in/hr0.0 mm/hr 0.00 in0.0 mm
08:03 AM 31.1°F-0.5°C 24.1°F-4.4°C 75% 2.2 mph N3.5 kmh N 6.9 mph11.1 kmh 30.11 in1019.6 mb 0.00 in0.0 mm 0.00 in/hr0.0 mm/hr 0.00 in0.0 mm
08:02 AM 31.1°F-0.5°C 24.1°F-4.4°C 75% 3.1 mph N5.0 kmh N 6.9 mph11.1 kmh 30.11 in1019.6 mb 0.00 in0.0 mm 0.00 in/hr0.0 mm/hr 0.00 in0.0 mm
08:01 AM 30.9°F-0.6°C 24.0°F-4.4°C 75% 2.2 mph NNW3.5 kmh NNW 9.2 mph14.8 kmh 30.12 in1020.0 mb 0.00 in0.0 mm 0.00 in/hr0.0 mm/hr 0.00 in0.0 mm
08:00 AM 30.9°F-0.6°C 24.0°F-4.4°C 75% 3.1 mph NNW5.0 kmh NNW 9.2 mph14.8 kmh 30.11 in1019.6 mb 0.00 in0.0 mm 0.00 in/hr0.0 mm/hr 0.00 in0.0 mm
07:59 AM 30.9°F-0.6°C 24.0°F-4.4°C 75% 3.1 mph N5.0 kmh N 10.7 mph17.2 kmh 30.11 in1019.6 mb 0.00 in0.0 mm 0.00 in/hr0.0 mm/hr 0.00 in0.0 mm
07:58 AM 30.9°F-0.6°C 24.0°F-4.4°C 75% 1.6 mph N2.6 kmh N 10.7 mph17.2 kmh 30.12 in1020.0 mb 0.00 in0.0 mm 0.00 in/hr0.0 mm/hr 0.00 in0.0 mm
07:57 AM 30.9°F-0.6°C 24.0°F-4.4°C 75% 2.2 mph N3.5 kmh N 10.7 mph17.2 kmh 30.11 in1019.6 mb 0.00 in0.0 mm 0.00 in/hr0.0 mm/hr 0.00 in0.0 mm
07:56 AM 30.9°F-0.6°C 24.0°F-4.4°C 75% 3.1 mph N5.0 kmh N 10.7 mph17.2 kmh 30.11 in1019.6 mb 0.00 in0.0 mm 0.00 in/hr0.0 mm/hr 0.00 in0.0 mm
07:55 AM 30.9°F-0.6°C 24.0°F-4.4°C 75% 3.1 mph N5.0 kmh N 10.7 mph17.2 kmh 30.11 in1019.6 mb 0.00 in0.0 mm 0.00 in/hr0.0 mm/hr 0.00 in0.0 mm
07:54 AM 30.9°F-0.6°C 24.0°F-4.4°C 75% 2.2 mph N3.5 kmh N 10.7 mph17.2 kmh 30.11 in1019.6 mb 0.00 in0.0 mm 0.00 in/hr0.0 mm/hr 0.00 in0.0 mm
07:53 AM 30.7°F-0.7°C 23.8°F-4.6°C 75% 3.1 mph N5.0 kmh N 10.7 mph17.2 kmh 30.11 in1019.6 mb 0.00 in0.0 mm 0.00 in/hr0.0 mm/hr 0.00 in0.0 mm
07:52 AM 30.7°F-0.7°C 23.8°F-4.6°C 75% 3.8 mph N6.1 kmh N 10.7 mph17.2 kmh 30.11 in1019.6 mb 0.00 in0.0 mm 0.00 in/hr0.0 mm/hr 0.00 in0.0 mm
07:51 AM 30.6°F-0.8°C 23.6°F-4.7°C 75% 4.5 mph N7.2 kmh N 10.7 mph17.2 kmh 30.11 in1019.6 mb 0.00 in0.0 mm 0.00 in/hr0.0 mm/hr 0.00 in0.0 mm
07:50 AM 30.6°F-0.8°C 23.9°F-4.5°C 76% 4.5 mph N7.2 kmh N 10.7 mph17.2 kmh 30.11 in1019.6 mb 0.00 in0.0 mm 0.00 in/hr0.0 mm/hr 0.00 in0.0 mm
07:49 AM 30.6°F-0.8°C 23.9°F-4.5°C 76% 3.1 mph NNW5.0 kmh NNW 7.6 mph12.2 kmh 30.11 in1019.6 mb 0.00 in0.0 mm 0.00 in/hr0.0 mm/hr 0.00 in0.0 mm
07:48 AM 30.6°F-0.8°C 23.9°F-4.5°C 76% 4.5 mph NNW7.2 kmh NNW 7.6 mph12.2 kmh 30.11 in1019.6 mb 0.00 in0.0 mm 0.00 in/hr0.0 mm/hr 0.00 in0.0 mm
07:47 AM 30.6°F-0.8°C 23.9°F-4.5°C 76% 3.1 mph NNW5.0 kmh NNW 7.6 mph12.2 kmh 30.11 in1019.6 mb 0.00 in0.0 mm 0.00 in/hr0.0 mm/hr 0.00 in0.0 mm
07:46 AM 30.6°F-0.8°C 24.2°F-4.3°C 77% 3.1 mph NNW5.0 kmh NNW 7.6 mph12.2 kmh 30.11 in1019.6 mb 0.00 in0.0 mm 0.00 in/hr0.0 mm/hr 0.00 in0.0 mm
07:45 AM 30.2°F-1.0°C 23.9°F-4.5°C 77% 3.8 mph NNW6.1 kmh NNW 7.6 mph12.2 kmh 30.11 in1019.6 mb 0.00 in0.0 mm 0.00 in/hr0.0 mm/hr 0.00 in0.0 mm
07:44 AM 30.0°F-1.1°C 24.0°F-4.4°C 78% 4.5 mph NNW7.2 kmh NNW 7.6 mph12.2 kmh 30.10 in1019.3 mb 0.00 in0.0 mm 0.00 in/hr0.0 mm/hr 0.00 in0.0 mm
07:43 AM 30.0°F-1.1°C 24.0°F-4.4°C 78% 3.1 mph NNW5.0 kmh NNW 7.6 mph12.2 kmh 30.10 in1019.3 mb 0.00 in0.0 mm 0.00 in/hr0.0 mm/hr 0.00 in0.0 mm
07:42 AM 30.0°F-1.1°C 24.0°F-4.4°C 78% 3.1 mph N5.0 kmh N 7.6 mph12.2 kmh 30.10 in1019.3 mb 0.00 in0.0 mm 0.00 in/hr0.0 mm/hr 0.00 in0.0 mm
07:41 AM 30.0°F-1.1°C 24.6°F-4.1°C 80% 3.8 mph N6.1 kmh N 7.6 mph12.2 kmh 30.10 in1019.3 mb 0.00 in0.0 mm 0.00 in/hr0.0 mm/hr 0.00 in0.0 mm
07:40 AM 30.0°F-1.1°C 24.6°F-4.1°C 80% 2.2 mph NNE3.5 kmh NNE 9.8 mph15.8 kmh 30.10 in1019.3 mb 0.00 in0.0 mm 0.00 in/hr0.0 mm/hr 0.00 in0.0 mm
07:39 AM 30.0°F-1.1°C 24.6°F-4.1°C 80% 2.2 mph NNE3.5 kmh NNE 9.8 mph15.8 kmh 30.10 in1019.3 mb 0.00 in0.0 mm 0.00 in/hr0.0 mm/hr 0.00 in0.0 mm
07:38 AM 29.8°F-1.2°C 24.4°F-4.2°C 80% 4.5 mph NNE7.2 kmh NNE 9.8 mph15.8 kmh 30.10 in1019.3 mb 0.00 in0.0 mm 0.00 in/hr0.0 mm/hr 0.00 in0.0 mm
07:37 AM 29.8°F-1.2°C 24.4°F-4.2°C 80% 3.1 mph NE5.0 kmh NE 9.8 mph15.8 kmh 30.10 in1019.3 mb 0.00 in0.0 mm 0.00 in/hr0.0 mm/hr 0.00 in0.0 mm
07:36 AM 29.8°F-1.2°C 24.4°F-4.2°C 80% 3.1 mph NE5.0 kmh NE 9.8 mph15.8 kmh 30.10 in1019.3 mb 0.00 in0.0 mm 0.00 in/hr0.0 mm/hr 0.00 in0.0 mm
07:35 AM 29.8°F-1.2°C 24.4°F-4.2°C 80% 3.8 mph NE6.1 kmh NE 9.8 mph15.8 kmh 30.10 in1019.3 mb 0.00 in0.0 mm 0.00 in/hr0.0 mm/hr 0.00 in0.0 mm
07:34 AM 29.8°F-1.2°C 24.4°F-4.2°C 80% 2.2 mph NE3.5 kmh NE 9.8 mph15.8 kmh 30.10 in1019.3 mb 0.00 in0.0 mm 0.00 in/hr0.0 mm/hr 0.00 in0.0 mm
07:33 AM 29.8°F-1.2°C 24.4°F-4.2°C 80% 2.2 mph NE3.5 kmh NE 9.8 mph15.8 kmh 30.10 in1019.3 mb 0.00 in0.0 mm 0.00 in/hr0.0 mm/hr 0.00 in0.0 mm
07:32 AM 29.8°F-1.2°C 24.4°F-4.2°C 80% 4.5 mph NE7.2 kmh NE 9.8 mph15.8 kmh 30.10 in1019.3 mb 0.00 in0.0 mm 0.00 in/hr0.0 mm/hr 0.00 in0.0 mm
07:31 AM 29.8°F-1.2°C 24.4°F-4.2°C 80% 3.1 mph NE5.0 kmh NE 9.8 mph15.8 kmh 30.10 in1019.3 mb 0.00 in0.0 mm 0.00 in/hr0.0 mm/hr 0.00 in0.0 mm
07:30 AM 29.7°F-1.3°C 24.3°F-4.3°C 80% 6.0 mph NE9.7 kmh NE 9.8 mph15.8 kmh 30.10 in1019.3 mb 0.00 in0.0 mm 0.00 in/hr0.0 mm/hr 0.00 in0.0 mm
07:29 AM 29.8°F-1.2°C 24.4°F-4.2°C 80% 3.1 mph ENE5.0 kmh ENE 11.4 mph18.3 kmh 30.10 in1019.3 mb 0.00 in0.0 mm 0.00 in/hr0.0 mm/hr 0.00 in0.0 mm
07:28 AM 29.7°F-1.3°C 24.3°F-4.3°C 80% 4.5 mph ENE7.2 kmh ENE 11.4 mph18.3 kmh 30.10 in1019.3 mb 0.00 in0.0 mm 0.00 in/hr0.0 mm/hr 0.00 in0.0 mm
07:27 AM 29.7°F-1.3°C 24.3°F-4.3°C 80% 4.5 mph NE7.2 kmh NE 11.4 mph18.3 kmh 30.10 in1019.3 mb 0.00 in0.0 mm 0.00 in/hr0.0 mm/hr 0.00 in0.0 mm
07:26 AM 29.8°F-1.2°C 24.4°F-4.2°C 80% 2.2 mph NE3.5 kmh NE 11.4 mph18.3 kmh 30.10 in1019.3 mb 0.00 in0.0 mm 0.00 in/hr0.0 mm/hr 0.00 in0.0 mm
07:25 AM 29.8°F-1.2°C 24.4°F-4.2°C 80% 3.8 mph NE6.1 kmh NE 11.4 mph18.3 kmh 30.09 in1019.0 mb 0.00 in0.0 mm 0.00 in/hr0.0 mm/hr 0.00 in0.0 mm
07:24 AM 29.8°F-1.2°C 23.8°F-4.6°C 78% 4.5 mph NE7.2 kmh NE 11.4 mph18.3 kmh 30.10 in1019.3 mb 0.00 in0.0 mm 0.00 in/hr0.0 mm/hr 0.00 in0.0 mm
07:23 AM 29.8°F-1.2°C 23.8°F-4.6°C 78% 3.8 mph NNE6.1 kmh NNE 11.4 mph18.3 kmh 30.10 in1019.3 mb 0.00 in0.0 mm 0.00 in/hr0.0 mm/hr 0.00 in0.0 mm
07:22 AM 29.8°F-1.2°C 23.8°F-4.6°C 78% 3.8 mph NNE6.1 kmh NNE 11.4 mph18.3 kmh 30.10 in1019.3 mb 0.00 in0.0 mm 0.00 in/hr0.0 mm/hr 0.00 in0.0 mm
07:21 AM 30.0°F-1.1°C 24.6°F-4.1°C 80% 4.5 mph N7.2 kmh N 11.4 mph18.3 kmh 30.10 in1019.3 mb 0.00 in0.0 mm 0.00 in/hr0.0 mm/hr 0.00 in0.0 mm
07:20 AM 29.8°F-1.2°C 24.4°F-4.2°C 80% 6.0 mph NNE9.7 kmh NNE 11.4 mph18.3 kmh 30.10 in1019.3 mb 0.00 in0.0 mm 0.00 in/hr0.0 mm/hr 0.00 in0.0 mm
07:19 AM 30.0°F-1.1°C 24.6°F-4.1°C 80% 3.1 mph N5.0 kmh N 9.2 mph14.8 kmh 30.10 in1019.3 mb 0.00 in0.0 mm 0.00 in/hr0.0 mm/hr 0.00 in0.0 mm
07:18 AM 29.8°F-1.2°C 24.4°F-4.2°C 80% 4.5 mph N7.2 kmh N 9.2 mph14.8 kmh 30.09 in1019.0 mb 0.00 in0.0 mm 0.00 in/hr0.0 mm/hr 0.00 in0.0 mm
07:17 AM 30.0°F-1.1°C 24.0°F-4.4°C 78% 3.1 mph N5.0 kmh N 9.8 mph15.8 kmh 30.10 in1019.3 mb 0.00 in0.0 mm 0.00 in/hr0.0 mm/hr 0.00 in0.0 mm
07:16 AM 30.0°F-1.1°C 24.0°F-4.4°C 78% 3.1 mph N5.0 kmh N 9.8 mph15.8 kmh 30.09 in1019.0 mb 0.00 in0.0 mm 0.00 in/hr0.0 mm/hr 0.00 in0.0 mm
07:15 AM 30.0°F-1.1°C 24.0°F-4.4°C 78% 3.8 mph N6.1 kmh N 9.8 mph15.8 kmh 30.10 in1019.3 mb 0.00 in0.0 mm 0.00 in/hr0.0 mm/hr 0.00 in0.0 mm
07:14 AM 30.0°F-1.1°C 24.0°F-4.4°C 78% 3.1 mph NNE5.0 kmh NNE 9.8 mph15.8 kmh 30.09 in1019.0 mb 0.00 in0.0 mm 0.00 in/hr0.0 mm/hr 0.00 in0.0 mm
07:13 AM 30.2°F-1.0°C 24.2°F-4.3°C 78% 5.4 mph NE8.7 kmh NE 9.8 mph15.8 kmh 30.09 in1019.0 mb 0.00 in0.0 mm 0.00 in/hr0.0 mm/hr 0.00 in0.0 mm
07:12 AM 30.0°F-1.1°C 24.6°F-4.1°C 80% 5.4 mph NE8.7 kmh NE 9.8 mph15.8 kmh 30.09 in1019.0 mb 0.00 in0.0 mm 0.00 in/hr0.0 mm/hr 0.00 in0.0 mm
07:11 AM 29.8°F-1.2°C 24.4°F-4.2°C 80% 6.0 mph NE9.7 kmh NE 9.8 mph15.8 kmh 30.09 in1019.0 mb 0.00 in0.0 mm 0.00 in/hr0.0 mm/hr 0.00 in0.0 mm
07:10 AM 30.0°F-1.1°C 24.6°F-4.1°C 80% 3.8 mph ENE6.1 kmh ENE 9.8 mph15.8 kmh 30.09 in1019.0 mb 0.00 in0.0 mm 0.00 in/hr0.0 mm/hr 0.00 in0.0 mm
07:09 AM 30.0°F-1.1°C 24.6°F-4.1°C 80% 5.4 mph ENE8.7 kmh ENE 9.8 mph15.8 kmh 30.09 in1019.0 mb 0.00 in0.0 mm 0.00 in/hr0.0 mm/hr 0.00 in0.0 mm
07:08 AM 30.0°F-1.1°C 24.6°F-4.1°C 80% 3.8 mph ENE6.1 kmh ENE 9.8 mph15.8 kmh 30.09 in1019.0 mb 0.00 in0.0 mm 0.00 in/hr0.0 mm/hr 0.00 in0.0 mm
07:07 AM 30.0°F-1.1°C 24.6°F-4.1°C 80% 5.4 mph ENE8.7 kmh ENE 9.8 mph15.8 kmh 30.09 in1019.0 mb 0.00 in0.0 mm 0.00 in/hr0.0 mm/hr 0.00 in0.0 mm
07:06 AM 30.0°F-1.1°C 24.6°F-4.1°C 80% 5.4 mph NE8.7 kmh NE 9.8 mph15.8 kmh 30.09 in1019.0 mb 0.00 in0.0 mm 0.00 in/hr0.0 mm/hr 0.00 in0.0 mm
07:05 AM 30.0°F-1.1°C 24.6°F-4.1°C 80% 5.4 mph NE8.7 kmh NE 9.8 mph15.8 kmh 30.09 in1019.0 mb 0.00 in0.0 mm 0.00 in/hr0.0 mm/hr 0.00 in0.0 mm
07:04 AM 30.0°F-1.1°C 24.6°F-4.1°C 80% 5.4 mph NE8.7 kmh NE 9.8 mph15.8 kmh 30.08 in1018.6 mb 0.00 in0.0 mm 0.00 in/hr0.0 mm/hr 0.00 in0.0 mm
07:03 AM 30.0°F-1.1°C 24.6°F-4.1°C 80% 5.4 mph NE8.7 kmh NE 9.8 mph15.8 kmh 30.09 in1019.0 mb 0.00 in0.0 mm 0.00 in/hr0.0 mm/hr 0.00 in0.0 mm
07:02 AM 30.0°F-1.1°C 24.6°F-4.1°C 80% 5.4 mph NE8.7 kmh NE 10.7 mph17.2 kmh 30.08 in1018.6 mb 0.00 in0.0 mm 0.00 in/hr0.0 mm/hr 0.00 in0.0 mm
07:01 AM 30.0°F-1.1°C 24.6°F-4.1°C 80% 5.4 mph NE8.7 kmh NE 10.7 mph17.2 kmh 30.08 in1018.6 mb 0.00 in0.0 mm 0.00 in/hr0.0 mm/hr 0.00 in0.0 mm
07:00 AM 30.0°F-1.1°C 24.6°F-4.1°C 80% 5.4 mph NE8.7 kmh NE 10.7 mph17.2 kmh 30.08 in1018.6 mb 0.00 in0.0 mm 0.00 in/hr0.0 mm/hr 0.00 in0.0 mm
06:59 AM 30.0°F-1.1°C 24.6°F-4.1°C 80% 4.5 mph NNE7.2 kmh NNE 10.7 mph17.2 kmh 30.09 in1019.0 mb 0.00 in0.0 mm 0.00 in/hr0.0 mm/hr 0.00 in0.0 mm
06:58 AM 30.0°F-1.1°C 24.6°F-4.1°C 80% 4.5 mph NNE7.2 kmh NNE 10.7 mph17.2 kmh 30.08 in1018.6 mb 0.00 in0.0 mm 0.00 in/hr0.0 mm/hr 0.00 in0.0 mm
06:57 AM 30.0°F-1.1°C 24.0°F-4.4°C 78% 3.8 mph N6.1 kmh N 10.7 mph17.2 kmh 30.08 in1018.6 mb 0.00 in0.0 mm 0.00 in/hr0.0 mm/hr 0.00 in0.0 mm
06:56 AM 30.0°F-1.1°C 24.0°F-4.4°C 78% 3.1 mph N5.0 kmh N 10.7 mph17.2 kmh 30.08 in1018.6 mb 0.00 in0.0 mm 0.00 in/hr0.0 mm/hr 0.00 in0.0 mm
06:55 AM 30.0°F-1.1°C 24.0°F-4.4°C 78% 3.8 mph N6.1 kmh N 10.7 mph17.2 kmh 30.08 in1018.6 mb 0.00 in0.0 mm 0.00 in/hr0.0 mm/hr 0.00 in0.0 mm
06:54 AM 29.8°F-1.2°C 23.8°F-4.6°C 78% 3.8 mph N6.1 kmh N 10.7 mph17.2 kmh 30.08 in1018.6 mb 0.00 in0.0 mm 0.00 in/hr0.0 mm/hr 0.00 in0.0 mm
06:53 AM 30.0°F-1.1°C 24.0°F-4.4°C 78% 5.4 mph N8.7 kmh N 10.7 mph17.2 kmh 30.08 in1018.6 mb 0.00 in0.0 mm 0.00 in/hr0.0 mm/hr 0.00 in0.0 mm
06:52 AM 30.2°F-1.0°C 23.9°F-4.5°C 77% 3.8 mph N6.1 kmh N 11.4 mph18.3 kmh 30.08 in1018.6 mb 0.00 in0.0 mm 0.00 in/hr0.0 mm/hr 0.00 in0.0 mm
06:51 AM 30.2°F-1.0°C 23.9°F-4.5°C 77% 3.8 mph N6.1 kmh N 11.4 mph18.3 kmh 30.08 in1018.6 mb 0.00 in0.0 mm 0.00 in/hr0.0 mm/hr 0.00 in0.0 mm
06:50 AM 30.2°F-1.0°C 23.9°F-4.5°C 77% 4.5 mph N7.2 kmh N 11.4 mph18.3 kmh 30.08 in1018.6 mb 0.00 in0.0 mm 0.00 in/hr0.0 mm/hr 0.00 in0.0 mm
06:49 AM 30.0°F-1.1°C 24.0°F-4.4°C 78% 3.1 mph N5.0 kmh N 11.4 mph18.3 kmh 30.08 in1018.6 mb 0.00 in0.0 mm 0.00 in/hr0.0 mm/hr 0.00 in0.0 mm
06:48 AM 30.2°F-1.0°C 23.9°F-4.5°C 77% 3.8 mph N6.1 kmh N 11.4 mph18.3 kmh 30.08 in1018.6 mb 0.00 in0.0 mm 0.00 in/hr0.0 mm/hr 0.00 in0.0 mm
06:47 AM 30.2°F-1.0°C 23.9°F-4.5°C 77% 6.0 mph N9.7 kmh N 11.4 mph18.3 kmh 30.08 in1018.6 mb 0.00 in0.0 mm 0.00 in/hr0.0 mm/hr 0.00 in0.0 mm
06:46 AM 30.4°F-0.9°C 24.1°F-4.4°C 77% 6.0 mph N9.7 kmh N 11.4 mph18.3 kmh 30.08 in1018.6 mb 0.00 in0.0 mm 0.00 in/hr0.0 mm/hr 0.00 in0.0 mm
06:45 AM 30.2°F-1.0°C 23.9°F-4.5°C 77% 5.4 mph N8.7 kmh N 11.4 mph18.3 kmh 30.08 in1018.6 mb 0.00 in0.0 mm 0.00 in/hr0.0 mm/hr 0.00 in0.0 mm
06:44 AM 30.0°F-1.1°C 24.0°F-4.4°C 78% 4.5 mph N7.2 kmh N 11.4 mph18.3 kmh 30.07 in1018.3 mb 0.00 in0.0 mm 0.00 in/hr0.0 mm/hr 0.00 in0.0 mm
06:43 AM 30.2°F-1.0°C 23.9°F-4.5°C 77% 3.1 mph N5.0 kmh N 11.4 mph18.3 kmh 30.07 in1018.3 mb 0.00 in0.0 mm 0.00 in/hr0.0 mm/hr 0.00 in0.0 mm
06:42 AM 30.4°F-0.9°C 24.1°F-4.4°C 77% 6.0 mph N9.7 kmh N 11.4 mph18.3 kmh 30.08 in1018.6 mb 0.00 in0.0 mm 0.00 in/hr0.0 mm/hr 0.00 in0.0 mm
06:41 AM 30.2°F-1.0°C 24.2°F-4.3°C 78% 6.9 mph N11.1 kmh N 9.8 mph15.8 kmh 30.07 in1018.3 mb 0.00 in0.0 mm 0.00 in/hr0.0 mm/hr 0.00 in0.0 mm
06:40 AM 30.2°F-1.0°C 24.2°F-4.3°C 78% 4.5 mph N7.2 kmh N 9.8 mph15.8 kmh 30.08 in1018.6 mb 0.00 in0.0 mm 0.00 in/hr0.0 mm/hr 0.00 in0.0 mm
06:39 AM 30.0°F-1.1°C 24.6°F-4.1°C 80% 6.0 mph N9.7 kmh N 9.8 mph15.8 kmh 30.07 in1018.3 mb 0.00 in0.0 mm 0.00 in/hr0.0 mm/hr 0.00 in0.0 mm
06:38 AM 30.0°F-1.1°C 24.9°F-3.9°C 81% 6.0 mph N9.7 kmh N 9.8 mph15.8 kmh 30.07 in1018.3 mb 0.00 in0.0 mm 0.00 in/hr0.0 mm/hr 0.00 in0.0 mm
06:37 AM 30.2°F-1.0°C 24.8°F-4.0°C 80% 6.9 mph N11.1 kmh N 9.8 mph15.8 kmh 30.07 in1018.3 mb 0.00 in0.0 mm 0.00 in/hr0.0 mm/hr 0.00 in0.0 mm
06:36 AM 30.0°F-1.1°C 24.9°F-3.9°C 81% 6.9 mph N11.1 kmh N 9.8 mph15.8 kmh 30.07 in1018.3 mb 0.00 in0.0 mm 0.00 in/hr0.0 mm/hr 0.00 in0.0 mm
06:35 AM 30.0°F-1.1°C 25.2°F-3.8°C 82% 4.5 mph N7.2 kmh N 10.7 mph17.2 kmh 30.07 in1018.3 mb 0.00 in0.0 mm 0.00 in/hr0.0 mm/hr 0.00 in0.0 mm
06:34 AM 29.8°F-1.2°C 25.0°F-3.9°C 82% 3.8 mph N6.1 kmh N 10.7 mph17.2 kmh 30.07 in1018.3 mb 0.00 in0.0 mm 0.00 in/hr0.0 mm/hr 0.00 in0.0 mm
06:33 AM 29.8°F-1.2°C 25.0°F-3.9°C 82% 4.5 mph N7.2 kmh N 10.7 mph17.2 kmh 30.07 in1018.3 mb 0.00 in0.0 mm 0.00 in/hr0.0 mm/hr 0.00 in0.0 mm
06:32 AM 29.8°F-1.2°C 25.0°F-3.9°C 82% 4.5 mph N7.2 kmh N 10.7 mph17.2 kmh 30.07 in1018.3 mb 0.00 in0.0 mm 0.00 in/hr0.0 mm/hr 0.00 in0.0 mm
06:31 AM 29.8°F-1.2°C 25.0°F-3.9°C 82% 4.5 mph N7.2 kmh N 10.7 mph17.2 kmh 30.07 in1018.3 mb 0.00 in0.0 mm 0.00 in/hr0.0 mm/hr 0.00 in0.0 mm
06:30 AM 29.8°F-1.2°C 25.0°F-3.9°C 82% 3.8 mph N6.1 kmh N 10.7 mph17.2 kmh 30.07 in1018.3 mb 0.00 in0.0 mm 0.00 in/hr0.0 mm/hr 0.00 in0.0 mm
06:29 AM 29.8°F-1.2°C 25.0°F-3.9°C 82% 5.4 mph N8.7 kmh N 10.7 mph17.2 kmh 30.07 in1018.3 mb 0.00 in0.0 mm 0.00 in/hr0.0 mm/hr 0.00 in0.0 mm
06:28 AM 29.8°F-1.2°C 25.3°F-3.7°C 83% 2.2 mph N3.5 kmh N 10.7 mph17.2 kmh 30.07 in1018.3 mb 0.00 in0.0 mm 0.00 in/hr0.0 mm/hr 0.00 in0.0 mm
06:27 AM 29.8°F-1.2°C 25.3°F-3.7°C 83% 5.4 mph N8.7 kmh N 11.4 mph18.3 kmh 30.07 in1018.3 mb 0.00 in0.0 mm 0.00 in/hr0.0 mm/hr 0.00 in0.0 mm
06:26 AM 30.0°F-1.1°C 25.5°F-3.6°C 83% 3.1 mph N5.0 kmh N 11.4 mph18.3 kmh 30.07 in1018.3 mb 0.00 in0.0 mm 0.00 in/hr0.0 mm/hr 0.00 in0.0 mm
06:25 AM 29.7°F-1.3°C 25.2°F-3.8°C 83% 6.0 mph N9.7 kmh N 11.4 mph18.3 kmh 30.07 in1018.3 mb 0.00 in0.0 mm 0.00 in/hr0.0 mm/hr 0.00 in0.0 mm
06:24 AM 29.5°F-1.4°C 25.0°F-3.9°C 83% 3.8 mph NNE6.1 kmh NNE 11.4 mph18.3 kmh 30.07 in1018.3 mb 0.00 in0.0 mm 0.00 in/hr0.0 mm/hr 0.00 in0.0 mm
06:23 AM 29.5°F-1.4°C 25.0°F-3.9°C 83% 3.1 mph NNE5.0 kmh NNE 11.4 mph18.3 kmh 30.06 in1017.9 mb 0.00 in0.0 mm 0.00 in/hr0.0 mm/hr 0.00 in0.0 mm
06:22 AM 29.5°F-1.4°C 25.0°F-3.9°C 83% 4.5 mph NNE7.2 kmh NNE 11.4 mph18.3 kmh 30.06 in1017.9 mb 0.00 in0.0 mm 0.00 in/hr0.0 mm/hr 0.00 in0.0 mm
06:21 AM 29.5°F-1.4°C 25.0°F-3.9°C 83% 3.8 mph N6.1 kmh N 11.4 mph18.3 kmh 30.07 in1018.3 mb 0.00 in0.0 mm 0.00 in/hr0.0 mm/hr 0.00 in0.0 mm
06:20 AM 29.3°F-1.5°C 25.4°F-3.7°C 85% 3.1 mph NNE5.0 kmh NNE 11.4 mph18.3 kmh 30.07 in1018.3 mb 0.00 in0.0 mm 0.00 in/hr0.0 mm/hr 0.00 in0.0 mm
06:19 AM 29.5°F-1.4°C 25.5°F-3.6°C 85% 3.1 mph N5.0 kmh N 11.4 mph18.3 kmh 30.06 in1017.9 mb 0.00 in0.0 mm 0.00 in/hr0.0 mm/hr 0.00 in0.0 mm
06:18 AM 29.5°F-1.4°C 25.5°F-3.6°C 85% 3.8 mph NNE6.1 kmh NNE 11.4 mph18.3 kmh 30.06 in1017.9 mb 0.00 in0.0 mm 0.00 in/hr0.0 mm/hr 0.00 in0.0 mm
06:17 AM 29.3°F-1.5°C 25.4°F-3.7°C 85% 5.4 mph NNE8.7 kmh NNE 11.4 mph18.3 kmh 30.06 in1017.9 mb 0.00 in0.0 mm 0.00 in/hr0.0 mm/hr 0.00 in0.0 mm
06:16 AM 28.9°F-1.7°C 25.0°F-3.9°C 85% 3.1 mph NE5.0 kmh NE 6.9 mph11.1 kmh 30.06 in1017.9 mb 0.00 in0.0 mm 0.00 in/hr0.0 mm/hr 0.00 in0.0 mm
06:15 AM 28.6°F-1.9°C 24.7°F-4.1°C 85% 3.1 mph NNE5.0 kmh NNE 6.0 mph9.7 kmh 30.06 in1017.9 mb 0.00 in0.0 mm 0.00 in/hr0.0 mm/hr 0.00 in0.0 mm
06:14 AM 28.8°F-1.8°C 24.8°F-4.0°C 85% 2.2 mph N3.5 kmh N 5.4 mph8.7 kmh 30.06 in1017.9 mb 0.00 in0.0 mm 0.00 in/hr0.0 mm/hr 0.00 in0.0 mm
06:13 AM 28.8°F-1.8°C 24.8°F-4.0°C 85% 0.7 mph N1.1 kmh N 6.0 mph9.7 kmh 30.06 in1017.9 mb 0.00 in0.0 mm 0.00 in/hr0.0 mm/hr 0.00 in0.0 mm
06:12 AM 28.8°F-1.8°C 24.8°F-4.0°C 85% 1.6 mph N2.6 kmh N 6.0 mph9.7 kmh 30.06 in1017.9 mb 0.00 in0.0 mm 0.00 in/hr0.0 mm/hr 0.00 in0.0 mm
06:11 AM 28.8°F-1.8°C 24.8°F-4.0°C 85% 2.2 mph N3.5 kmh N 6.0 mph9.7 kmh 30.06 in1017.9 mb 0.00 in0.0 mm 0.00 in/hr0.0 mm/hr 0.00 in0.0 mm
06:10 AM 28.9°F-1.7°C 25.0°F-3.9°C 85% 3.1 mph NNW5.0 kmh NNW 6.0 mph9.7 kmh 30.06 in1017.9 mb 0.00 in0.0 mm 0.00 in/hr0.0 mm/hr 0.00 in0.0 mm
06:09 AM 28.9°F-1.7°C 25.0°F-3.9°C 85% 2.2 mph NNW3.5 kmh NNW 6.0 mph9.7 kmh 30.06 in1017.9 mb 0.00 in0.0 mm 0.00 in/hr0.0 mm/hr 0.00 in0.0 mm
06:08 AM 29.1°F-1.6°C 25.2°F-3.8°C 85% 1.6 mph NNW2.6 kmh NNW 6.0 mph9.7 kmh 30.05 in1017.6 mb 0.00 in0.0 mm 0.00 in/hr0.0 mm/hr 0.00 in0.0 mm
06:07 AM 29.1°F-1.6°C 25.2°F-3.8°C 85% 2.2 mph NNW3.5 kmh NNW 6.0 mph9.7 kmh 30.06 in1017.9 mb 0.00 in0.0 mm 0.00 in/hr0.0 mm/hr 0.00 in0.0 mm
06:06 AM 29.1°F-1.6°C 25.2°F-3.8°C 85% 1.6 mph NNW2.6 kmh NNW 6.0 mph9.7 kmh 30.05 in1017.6 mb 0.00 in0.0 mm 0.00 in/hr0.0 mm/hr 0.00 in0.0 mm
06:05 AM 29.1°F-1.6°C 25.2°F-3.8°C 85% 2.2 mph NNW3.5 kmh NNW 6.0 mph9.7 kmh 30.05 in1017.6 mb 0.00 in0.0 mm 0.00 in/hr0.0 mm/hr 0.00 in0.0 mm
06:04 AM 29.3°F-1.5°C 25.4°F-3.7°C 85% 3.1 mph NNW5.0 kmh NNW 6.0 mph9.7 kmh 30.05 in1017.6 mb 0.00 in0.0 mm 0.00 in/hr0.0 mm/hr 0.00 in0.0 mm
06:03 AM 28.9°F-1.7°C 25.0°F-3.9°C 85% 3.8 mph NNW6.1 kmh NNW 6.0 mph9.7 kmh 30.05 in1017.6 mb 0.00 in0.0 mm 0.00 in/hr0.0 mm/hr 0.00 in0.0 mm
06:02 AM 28.9°F-1.7°C 25.0°F-3.9°C 85% 1.6 mph NNW2.6 kmh NNW 4.5 mph7.2 kmh 30.05 in1017.6 mb 0.00 in0.0 mm 0.00 in/hr0.0 mm/hr 0.00 in0.0 mm
06:01 AM 28.9°F-1.7°C 25.0°F-3.9°C 85% 1.6 mph NNW2.6 kmh NNW 4.5 mph7.2 kmh 30.05 in1017.6 mb 0.00 in0.0 mm 0.00 in/hr0.0 mm/hr 0.00 in0.0 mm
06:00 AM 28.9°F-1.7°C 25.0°F-3.9°C 85% 0.7 mph NNW1.1 kmh NNW 4.5 mph7.2 kmh 30.05 in1017.6 mb 0.00 in0.0 mm 0.00 in/hr0.0 mm/hr 0.00 in0.0 mm
05:59 AM 29.1°F-1.6°C 25.2°F-3.8°C 85% 0.7 mph NNW1.1 kmh NNW 6.0 mph9.7 kmh 30.05 in1017.6 mb 0.00 in0.0 mm 0.00 in/hr0.0 mm/hr 0.00 in0.0 mm
05:58 AM 29.1°F-1.6°C 25.2°F-3.8°C 85% 0.7 mph NNW1.1 kmh NNW 6.0 mph9.7 kmh 30.05 in1017.6 mb 0.00 in0.0 mm 0.00 in/hr0.0 mm/hr 0.00 in0.0 mm
05:57 AM 29.1°F-1.6°C 25.2°F-3.8°C 85% 1.6 mph NNW2.6 kmh NNW 6.0 mph9.7 kmh 30.05 in1017.6 mb 0.00 in0.0 mm 0.00 in/hr0.0 mm/hr 0.00 in0.0 mm
05:56 AM 29.1°F-1.6°C 24.6°F-4.1°C 83% 2.2 mph NNW3.5 kmh NNW 6.0 mph9.7 kmh 30.05 in1017.6 mb 0.00 in0.0 mm 0.00 in/hr0.0 mm/hr 0.00 in0.0 mm
05:55 AM 28.9°F-1.7°C 24.4°F-4.2°C 83% 2.2 mph NNW3.5 kmh NNW 6.0 mph9.7 kmh 30.05 in1017.6 mb 0.00 in0.0 mm 0.00 in/hr0.0 mm/hr 0.00 in0.0 mm
05:54 AM 28.9°F-1.7°C 24.4°F-4.2°C 83% 2.2 mph NNW3.5 kmh NNW 6.0 mph9.7 kmh 30.05 in1017.6 mb 0.00 in0.0 mm 0.00 in/hr0.0 mm/hr 0.00 in0.0 mm
05:53 AM 29.1°F-1.6°C 24.6°F-4.1°C 83% 1.6 mph NNW2.6 kmh NNW 6.0 mph9.7 kmh 30.05 in1017.6 mb 0.00 in0.0 mm 0.00 in/hr0.0 mm/hr 0.00 in0.0 mm
05:52 AM 29.1°F-1.6°C 24.6°F-4.1°C 83% 2.2 mph NNW3.5 kmh NNW 6.0 mph9.7 kmh 30.05 in1017.6 mb 0.00 in0.0 mm 0.00 in/hr0.0 mm/hr 0.00 in0.0 mm
05:51 AM 29.3°F-1.5°C 24.8°F-4.0°C 83% 0.7 mph N1.1 kmh N 6.0 mph9.7 kmh 30.05 in1017.6 mb 0.00 in0.0 mm 0.00 in/hr0.0 mm/hr 0.00 in0.0 mm
05:50 AM 29.3°F-1.5°C 24.8°F-4.0°C 83% 3.1 mph N5.0 kmh N 6.0 mph9.7 kmh 30.05 in1017.6 mb 0.00 in0.0 mm 0.00 in/hr0.0 mm/hr 0.00 in0.0 mm
05:49 AM 29.3°F-1.5°C 24.8°F-4.0°C 83% 3.8 mph NNW6.1 kmh NNW 6.0 mph9.7 kmh 30.05 in1017.6 mb 0.00 in0.0 mm 0.00 in/hr0.0 mm/hr 0.00 in0.0 mm
05:48 AM 29.3°F-1.5°C 24.8°F-4.0°C 83% 2.2 mph NNW3.5 kmh NNW 5.4 mph8.7 kmh 30.05 in1017.6 mb 0.00 in0.0 mm 0.00 in/hr0.0 mm/hr 0.00 in0.0 mm
05:47 AM 29.5°F-1.4°C 25.0°F-3.9°C 83% 2.2 mph NNW3.5 kmh NNW 5.4 mph8.7 kmh 30.05 in1017.6 mb 0.00 in0.0 mm 0.00 in/hr0.0 mm/hr 0.00 in0.0 mm
05:46 AM 29.3°F-1.5°C 24.8°F-4.0°C 83% 3.8 mph NNW6.1 kmh NNW 5.4 mph8.7 kmh 30.05 in1017.6 mb 0.00 in0.0 mm 0.00 in/hr0.0 mm/hr 0.00 in0.0 mm
05:45 AM 29.5°F-1.4°C 25.0°F-3.9°C 83% 3.8 mph NNW6.1 kmh NNW 5.4 mph8.7 kmh 30.05 in1017.6 mb 0.00 in0.0 mm 0.00 in/hr0.0 mm/hr 0.00 in0.0 mm
05:44 AM 29.5°F-1.4°C 24.7°F-4.1°C 82% 2.2 mph NNW3.5 kmh NNW 6.0 mph9.7 kmh 30.05 in1017.6 mb 0.00 in0.0 mm 0.00 in/hr0.0 mm/hr 0.00 in0.0 mm
05:43 AM 29.5°F-1.4°C 24.7°F-4.1°C 82% 2.2 mph NNW3.5 kmh NNW 6.0 mph9.7 kmh 30.05 in1017.6 mb 0.00 in0.0 mm 0.00 in/hr0.0 mm/hr 0.00 in0.0 mm
05:42 AM 29.7°F-1.3°C 24.9°F-3.9°C 82% 1.6 mph NNW2.6 kmh NNW 6.0 mph9.7 kmh 30.05 in1017.6 mb 0.00 in0.0 mm 0.00 in/hr0.0 mm/hr 0.00 in0.0 mm
05:41 AM 29.8°F-1.2°C 25.0°F-3.9°C 82% 1.6 mph NW2.6 kmh NW 6.0 mph9.7 kmh 30.05 in1017.6 mb 0.00 in0.0 mm 0.00 in/hr0.0 mm/hr 0.00 in0.0 mm
05:40 AM 29.8°F-1.2°C 25.0°F-3.9°C 82% 3.1 mph NNW5.0 kmh NNW 6.0 mph9.7 kmh 30.05 in1017.6 mb 0.00 in0.0 mm 0.00 in/hr0.0 mm/hr 0.00 in0.0 mm
05:39 AM 29.7°F-1.3°C 24.9°F-3.9°C 82% 3.1 mph NNW5.0 kmh NNW 6.0 mph9.7 kmh 30.05 in1017.6 mb 0.00 in0.0 mm 0.00 in/hr0.0 mm/hr 0.00 in0.0 mm
05:38 AM 29.7°F-1.3°C 24.9°F-3.9°C 82% 1.6 mph NW2.6 kmh NW 6.0 mph9.7 kmh 30.04 in1017.3 mb 0.00 in0.0 mm 0.00 in/hr0.0 mm/hr 0.00 in0.0 mm
05:37 AM 29.7°F-1.3°C 24.9°F-3.9°C 82% 3.1 mph NW5.0 kmh NW 6.0 mph9.7 kmh 30.04 in1017.3 mb 0.00 in0.0 mm 0.00 in/hr0.0 mm/hr 0.00 in0.0 mm
05:36 AM 29.8°F-1.2°C 25.0°F-3.9°C 82% 2.2 mph NW3.5 kmh NW 6.0 mph9.7 kmh 30.05 in1017.6 mb 0.00 in0.0 mm 0.00 in/hr0.0 mm/hr 0.00 in0.0 mm
05:35 AM 30.0°F-1.1°C 25.2°F-3.8°C 82% 2.2 mph NNW3.5 kmh NNW 6.0 mph9.7 kmh 30.05 in1017.6 mb 0.00 in0.0 mm 0.00 in/hr0.0 mm/hr 0.00 in0.0 mm
05:34 AM 30.0°F-1.1°C 25.2°F-3.8°C 82% 3.1 mph NNW5.0 kmh NNW 6.0 mph9.7 kmh 30.04 in1017.3 mb 0.00 in0.0 mm 0.00 in/hr0.0 mm/hr 0.00 in0.0 mm
05:33 AM 29.8°F-1.2°C 25.0°F-3.9°C 82% 3.8 mph NNW6.1 kmh NNW 6.0 mph9.7 kmh 30.05 in1017.6 mb 0.00 in0.0 mm 0.00 in/hr0.0 mm/hr 0.00 in0.0 mm
05:32 AM 29.8°F-1.2°C 25.0°F-3.9°C 82% 2.2 mph NNW3.5 kmh NNW 6.0 mph9.7 kmh 30.05 in1017.6 mb 0.00 in0.0 mm 0.00 in/hr0.0 mm/hr 0.00 in0.0 mm
05:31 AM 29.8°F-1.2°C 25.0°F-3.9°C 82% 3.1 mph NNW5.0 kmh NNW 6.0 mph9.7 kmh 30.05 in1017.6 mb 0.00 in0.0 mm 0.00 in/hr0.0 mm/hr 0.00 in0.0 mm
05:30 AM 29.8°F-1.2°C 25.0°F-3.9°C 82% 3.1 mph NNW5.0 kmh NNW 6.9 mph11.1 kmh 30.04 in1017.3 mb 0.00 in0.0 mm 0.00 in/hr0.0 mm/hr 0.00 in0.0 mm
05:29 AM 30.0°F-1.1°C 25.2°F-3.8°C 82% 2.2 mph NNW3.5 kmh NNW 6.9 mph11.1 kmh 30.04 in1017.3 mb 0.00 in0.0 mm 0.00 in/hr0.0 mm/hr 0.00 in0.0 mm
05:28 AM 29.8°F-1.2°C 25.3°F-3.7°C 83% 4.5 mph N7.2 kmh N 7.6 mph12.2 kmh 30.05 in1017.6 mb 0.00 in0.0 mm 0.00 in/hr0.0 mm/hr 0.00 in0.0 mm
05:27 AM 29.8°F-1.2°C 25.3°F-3.7°C 83% 3.8 mph N6.1 kmh N 8.3 mph13.4 kmh 30.04 in1017.3 mb 0.00 in0.0 mm 0.00 in/hr0.0 mm/hr 0.00 in0.0 mm
05:26 AM 29.8°F-1.2°C 25.3°F-3.7°C 83% 1.6 mph N2.6 kmh N 8.3 mph13.4 kmh 30.05 in1017.6 mb 0.00 in0.0 mm 0.00 in/hr0.0 mm/hr 0.00 in0.0 mm
05:25 AM 29.8°F-1.2°C 25.0°F-3.9°C 82% 3.8 mph NNW6.1 kmh NNW 8.3 mph13.4 kmh 30.05 in1017.6 mb 0.00 in0.0 mm 0.00 in/hr0.0 mm/hr 0.00 in0.0 mm
05:24 AM 29.8°F-1.2°C 25.0°F-3.9°C 82% 3.1 mph NNW5.0 kmh NNW 8.3 mph13.4 kmh 30.05 in1017.6 mb 0.00 in0.0 mm 0.00 in/hr0.0 mm/hr 0.00 in0.0 mm
05:23 AM 29.7°F-1.3°C 24.9°F-3.9°C 82% 3.8 mph NNW6.1 kmh NNW 8.3 mph13.4 kmh 30.04 in1017.3 mb 0.00 in0.0 mm 0.00 in/hr0.0 mm/hr 0.00 in0.0 mm
05:22 AM 29.7°F-1.3°C 24.9°F-3.9°C 82% 3.1 mph NNW5.0 kmh NNW 8.3 mph13.4 kmh 30.04 in1017.3 mb 0.00 in0.0 mm 0.00 in/hr0.0 mm/hr 0.00 in0.0 mm
05:21 AM 29.8°F-1.2°C 25.0°F-3.9°C 82% 2.2 mph NNW3.5 kmh NNW 8.3 mph13.4 kmh 30.04 in1017.3 mb 0.00 in0.0 mm 0.00 in/hr0.0 mm/hr 0.00 in0.0 mm
05:20 AM 29.8°F-1.2°C 25.0°F-3.9°C 82% 4.5 mph NNW7.2 kmh NNW 8.3 mph13.4 kmh 30.04 in1017.3 mb 0.00 in0.0 mm 0.00 in/hr0.0 mm/hr 0.00 in0.0 mm
05:19 AM 29.8°F-1.2°C 25.0°F-3.9°C 82% 4.5 mph NNW7.2 kmh NNW 8.3 mph13.4 kmh 30.04 in1017.3 mb 0.00 in0.0 mm 0.00 in/hr0.0 mm/hr 0.00 in0.0 mm
05:18 AM 29.8°F-1.2°C 25.0°F-3.9°C 82% 3.8 mph NNW6.1 kmh NNW 8.3 mph13.4 kmh 30.04 in1017.3 mb 0.00 in0.0 mm 0.00 in/hr0.0 mm/hr 0.00 in0.0 mm
05:17 AM 29.8°F-1.2°C 25.0°F-3.9°C 82% 4.5 mph NNW7.2 kmh NNW 8.3 mph13.4 kmh 30.04 in1017.3 mb 0.00 in0.0 mm 0.00 in/hr0.0 mm/hr 0.00 in0.0 mm
05:16 AM 29.8°F-1.2°C 24.7°F-4.1°C 81% 3.1 mph N5.0 kmh N 5.4 mph8.7 kmh 30.04 in1017.3 mb 0.00 in0.0 mm 0.00 in/hr0.0 mm/hr 0.00 in0.0 mm
05:15 AM 29.7°F-1.3°C 24.6°F-4.1°C 81% 3.8 mph N6.1 kmh N 5.4 mph8.7 kmh 30.04 in1017.3 mb 0.00 in0.0 mm 0.00 in/hr0.0 mm/hr 0.00 in0.0 mm
05:14 AM 29.8°F-1.2°C 24.7°F-4.1°C 81% 2.2 mph N3.5 kmh N 5.4 mph8.7 kmh 30.04 in1017.3 mb 0.00 in0.0 mm 0.00 in/hr0.0 mm/hr 0.00 in0.0 mm
05:13 AM 29.8°F-1.2°C 24.7°F-4.1°C 81% 2.2 mph N3.5 kmh N 5.4 mph8.7 kmh 30.04 in1017.3 mb 0.00 in0.0 mm 0.00 in/hr0.0 mm/hr 0.00 in0.0 mm
05:12 AM 30.0°F-1.1°C 24.6°F-4.1°C 80% 1.6 mph N2.6 kmh N 5.4 mph8.7 kmh 30.04 in1017.3 mb 0.00 in0.0 mm 0.00 in/hr0.0 mm/hr 0.00 in0.0 mm
05:11 AM 30.2°F-1.0°C 24.2°F-4.3°C 78% 1.6 mph N2.6 kmh N 5.4 mph8.7 kmh 30.04 in1017.3 mb 0.00 in0.0 mm 0.00 in/hr0.0 mm/hr 0.00 in0.0 mm
05:10 AM 30.0°F-1.1°C 24.6°F-4.1°C 80% 2.2 mph NNE3.5 kmh NNE 5.4 mph8.7 kmh 30.04 in1017.3 mb 0.00 in0.0 mm 0.00 in/hr0.0 mm/hr 0.00 in0.0 mm
05:09 AM 30.2°F-1.0°C 24.2°F-4.3°C 78% 0.7 mph NNE1.1 kmh NNE 5.4 mph8.7 kmh 30.04 in1017.3 mb 0.00 in0.0 mm 0.00 in/hr0.0 mm/hr 0.00 in0.0 mm
05:08 AM 30.2°F-1.0°C 24.2°F-4.3°C 78% 1.6 mph NNE2.6 kmh NNE 6.0 mph9.7 kmh 30.04 in1017.3 mb 0.00 in0.0 mm 0.00 in/hr0.0 mm/hr 0.00 in0.0 mm
05:07 AM 30.6°F-0.8°C 24.5°F-4.2°C 78% 3.8 mph NNE6.1 kmh NNE 6.0 mph9.7 kmh 30.04 in1017.3 mb 0.00 in0.0 mm 0.00 in/hr0.0 mm/hr 0.00 in0.0 mm
05:06 AM 30.6°F-0.8°C 24.5°F-4.2°C 78% 3.8 mph N6.1 kmh N 6.0 mph9.7 kmh 30.03 in1016.9 mb 0.00 in0.0 mm 0.00 in/hr0.0 mm/hr 0.00 in0.0 mm
05:05 AM 30.6°F-0.8°C 24.5°F-4.2°C 78% 3.8 mph N6.1 kmh N 6.9 mph11.1 kmh 30.04 in1017.3 mb 0.00 in0.0 mm 0.00 in/hr0.0 mm/hr 0.00 in0.0 mm
05:04 AM 30.6°F-0.8°C 24.5°F-4.2°C 78% 3.8 mph N6.1 kmh N 7.6 mph12.2 kmh 30.04 in1017.3 mb 0.00 in0.0 mm 0.00 in/hr0.0 mm/hr 0.00 in0.0 mm
05:03 AM 30.6°F-0.8°C 24.5°F-4.2°C 78% 3.8 mph N6.1 kmh N 7.6 mph12.2 kmh 30.04 in1017.3 mb 0.00 in0.0 mm 0.00 in/hr0.0 mm/hr 0.00 in0.0 mm
05:02 AM 30.6°F-0.8°C 24.5°F-4.2°C 78% 3.8 mph N6.1 kmh N 7.6 mph12.2 kmh 30.04 in1017.3 mb 0.00 in0.0 mm 0.00 in/hr0.0 mm/hr 0.00 in0.0 mm
05:01 AM 30.6°F-0.8°C 24.5°F-4.2°C 78% 3.8 mph N6.1 kmh N 7.6 mph12.2 kmh 30.04 in1017.3 mb 0.00 in0.0 mm 0.00 in/hr0.0 mm/hr 0.00 in0.0 mm
05:00 AM 30.6°F-0.8°C 24.5°F-4.2°C 78% 3.8 mph N6.1 kmh N 7.6 mph12.2 kmh 30.04 in1017.3 mb 0.00 in0.0 mm 0.00 in/hr0.0 mm/hr 0.00 in0.0 mm
04:59 AM 30.6°F-0.8°C 24.5°F-4.2°C 78% 3.8 mph N6.1 kmh N 7.6 mph12.2 kmh 30.04 in1017.3 mb 0.00 in0.0 mm 0.00 in/hr0.0 mm/hr 0.00 in0.0 mm
04:58 AM 30.6°F-0.8°C 24.5°F-4.2°C 78% 3.8 mph N6.1 kmh N 7.6 mph12.2 kmh 30.04 in1017.3 mb 0.00 in0.0 mm 0.00 in/hr0.0 mm/hr 0.00 in0.0 mm
04:57 AM 30.7°F-0.7°C 24.7°F-4.1°C 78% 5.4 mph N8.7 kmh N 7.6 mph12.2 kmh 30.04 in1017.3 mb 0.00 in0.0 mm 0.00 in/hr0.0 mm/hr 0.00 in0.0 mm
04:56 AM 30.6°F-0.8°C 24.5°F-4.2°C 78% 5.4 mph N8.7 kmh N 7.6 mph12.2 kmh 30.03 in1016.9 mb 0.00 in0.0 mm 0.00 in/hr0.0 mm/hr 0.00 in0.0 mm
04:55 AM 30.7°F-0.7°C 24.7°F-4.1°C 78% 3.8 mph N6.1 kmh N 7.6 mph12.2 kmh 30.04 in1017.3 mb 0.00 in0.0 mm 0.00 in/hr0.0 mm/hr 0.00 in0.0 mm
04:54 AM 30.6°F-0.8°C 25.1°F-3.8°C 80% 5.4 mph N8.7 kmh N 7.6 mph12.2 kmh 30.03 in1016.9 mb 0.00 in0.0 mm 0.00 in/hr0.0 mm/hr 0.00 in0.0 mm
04:53 AM 30.6°F-0.8°C 25.1°F-3.8°C 80% 4.5 mph N7.2 kmh N 7.6 mph12.2 kmh 30.04 in1017.3 mb 0.00 in0.0 mm 0.00 in/hr0.0 mm/hr 0.00 in0.0 mm
04:52 AM 30.6°F-0.8°C 25.1°F-3.8°C 80% 3.8 mph NNW6.1 kmh NNW 7.6 mph12.2 kmh 30.04 in1017.3 mb 0.00 in0.0 mm 0.00 in/hr0.0 mm/hr 0.00 in0.0 mm
04:51 AM 30.6°F-0.8°C 25.1°F-3.8°C 80% 3.8 mph NNW6.1 kmh NNW 7.6 mph12.2 kmh 30.04 in1017.3 mb 0.00 in0.0 mm 0.00 in/hr0.0 mm/hr 0.00 in0.0 mm
04:50 AM 30.6°F-0.8°C 25.1°F-3.8°C 80% 3.8 mph NNW6.1 kmh NNW 7.6 mph12.2 kmh 30.04 in1017.3 mb 0.00 in0.0 mm 0.00 in/hr0.0 mm/hr 0.00 in0.0 mm
04:49 AM 30.6°F-0.8°C 25.1°F-3.8°C 80% 3.8 mph NNW6.1 kmh NNW 7.6 mph12.2 kmh 30.03 in1016.9 mb 0.00 in0.0 mm 0.00 in/hr0.0 mm/hr 0.00 in0.0 mm
04:48 AM 30.6°F-0.8°C 25.1°F-3.8°C 80% 4.5 mph NNW7.2 kmh NNW 7.6 mph12.2 kmh 30.03 in1016.9 mb 0.00 in0.0 mm 0.00 in/hr0.0 mm/hr 0.00 in0.0 mm
04:47 AM 30.7°F-0.7°C 25.3°F-3.7°C 80% 3.1 mph NNW5.0 kmh NNW 7.6 mph12.2 kmh 30.03 in1016.9 mb 0.00 in0.0 mm 0.00 in/hr0.0 mm/hr 0.00 in0.0 mm
04:46 AM 30.6°F-0.8°C 25.4°F-3.7°C 81% 4.5 mph NNW7.2 kmh NNW 7.6 mph12.2 kmh 30.03 in1016.9 mb 0.00 in0.0 mm 0.00 in/hr0.0 mm/hr 0.00 in0.0 mm
04:45 AM 30.6°F-0.8°C 25.4°F-3.7°C 81% 3.1 mph NNW5.0 kmh NNW 6.0 mph9.7 kmh 30.03 in1016.9 mb 0.00 in0.0 mm 0.00 in/hr0.0 mm/hr 0.00 in0.0 mm
04:44 AM 30.6°F-0.8°C 25.4°F-3.7°C 81% 3.8 mph NNW6.1 kmh NNW 6.0 mph9.7 kmh 30.03 in1016.9 mb 0.00 in0.0 mm 0.00 in/hr0.0 mm/hr 0.00 in0.0 mm
04:43 AM 30.4°F-0.9°C 25.3°F-3.7°C 81% 3.8 mph NNW6.1 kmh NNW 6.0 mph9.7 kmh 30.03 in1016.9 mb 0.00 in0.0 mm 0.00 in/hr0.0 mm/hr 0.00 in0.0 mm
04:42 AM 30.4°F-0.9°C 25.3°F-3.7°C 81% 2.2 mph NNW3.5 kmh NNW 6.0 mph9.7 kmh 30.03 in1016.9 mb 0.00 in0.0 mm 0.00 in/hr0.0 mm/hr 0.00 in0.0 mm
04:41 AM 30.6°F-0.8°C 25.4°F-3.7°C 81% 3.1 mph NNW5.0 kmh NNW 6.0 mph9.7 kmh 30.03 in1016.9 mb 0.00 in0.0 mm 0.00 in/hr0.0 mm/hr 0.00 in0.0 mm
04:40 AM 30.6°F-0.8°C 25.4°F-3.7°C 81% 3.1 mph NNW5.0 kmh NNW 6.0 mph9.7 kmh 30.03 in1016.9 mb 0.00 in0.0 mm 0.00 in/hr0.0 mm/hr 0.00 in0.0 mm
04:39 AM 30.6°F-0.8°C 25.4°F-3.7°C 81% 3.1 mph NNW5.0 kmh NNW 6.0 mph9.7 kmh 30.03 in1016.9 mb 0.00 in0.0 mm 0.00 in/hr0.0 mm/hr 0.00 in0.0 mm
04:38 AM 30.6°F-0.8°C 25.4°F-3.7°C 81% 3.1 mph NNW5.0 kmh NNW 6.0 mph9.7 kmh 30.03 in1016.9 mb 0.00 in0.0 mm 0.00 in/hr0.0 mm/hr 0.00 in0.0 mm
04:37 AM 30.4°F-0.9°C 25.0°F-3.9°C 80% 3.8 mph NNW6.1 kmh NNW 6.0 mph9.7 kmh 30.03 in1016.9 mb 0.00 in0.0 mm 0.00 in/hr0.0 mm/hr 0.00 in0.0 mm
04:36 AM 30.4°F-0.9°C 25.0°F-3.9°C 80% 1.6 mph NNW2.6 kmh NNW 4.5 mph7.2 kmh 30.03 in1016.9 mb 0.00 in0.0 mm 0.00 in/hr0.0 mm/hr 0.00 in0.0 mm
04:35 AM 30.6°F-0.8°C 25.1°F-3.8°C 80% 2.2 mph NNW3.5 kmh NNW 4.5 mph7.2 kmh 30.03 in1016.9 mb 0.00 in0.0 mm 0.00 in/hr0.0 mm/hr 0.00 in0.0 mm
04:34 AM 30.6°F-0.8°C 25.1°F-3.8°C 80% 1.6 mph NNW2.6 kmh NNW 4.5 mph7.2 kmh 30.03 in1016.9 mb 0.00 in0.0 mm 0.00 in/hr0.0 mm/hr 0.00 in0.0 mm
04:33 AM 30.7°F-0.7°C 25.3°F-3.7°C 80% 2.2 mph NNW3.5 kmh NNW 4.5 mph7.2 kmh 30.03 in1016.9 mb 0.00 in0.0 mm 0.00 in/hr0.0 mm/hr 0.00 in0.0 mm
04:32 AM 30.7°F-0.7°C 25.3°F-3.7°C 80% 2.2 mph NNW3.5 kmh NNW 4.5 mph7.2 kmh 30.03 in1016.9 mb 0.00 in0.0 mm 0.00 in/hr0.0 mm/hr 0.00 in0.0 mm
04:31 AM 30.6°F-0.8°C 25.1°F-3.8°C 80% 2.2 mph NNW3.5 kmh NNW 4.5 mph7.2 kmh 30.03 in1016.9 mb 0.00 in0.0 mm 0.00 in/hr0.0 mm/hr 0.00 in0.0 mm
04:30 AM 30.6°F-0.8°C 25.1°F-3.8°C 80% 2.2 mph NNW3.5 kmh NNW 4.5 mph7.2 kmh 30.03 in1016.9 mb 0.00 in0.0 mm 0.00 in/hr0.0 mm/hr 0.00 in0.0 mm
04:29 AM 30.6°F-0.8°C 25.1°F-3.8°C 80% 3.1 mph NNW5.0 kmh NNW 5.4 mph8.7 kmh 30.03 in1016.9 mb 0.00 in0.0 mm 0.00 in/hr0.0 mm/hr 0.00 in0.0 mm
04:28 AM 30.7°F-0.7°C 25.3°F-3.7°C 80% 2.2 mph NNW3.5 kmh NNW 5.4 mph8.7 kmh 30.03 in1016.9 mb 0.00 in0.0 mm 0.00 in/hr0.0 mm/hr 0.00 in0.0 mm
04:27 AM 30.7°F-0.7°C 25.3°F-3.7°C 80% 1.6 mph NNW2.6 kmh NNW 5.4 mph8.7 kmh 30.03 in1016.9 mb 0.00 in0.0 mm 0.00 in/hr0.0 mm/hr 0.00 in0.0 mm
04:26 AM 30.7°F-0.7°C 25.3°F-3.7°C 80% 2.2 mph NNW3.5 kmh NNW 5.4 mph8.7 kmh 30.03 in1016.9 mb 0.00 in0.0 mm 0.00 in/hr0.0 mm/hr 0.00 in0.0 mm
04:25 AM 30.9°F-0.6°C 25.5°F-3.6°C 80% 2.2 mph NNW3.5 kmh NNW 6.0 mph9.7 kmh 30.03 in1016.9 mb 0.00 in0.0 mm 0.00 in/hr0.0 mm/hr 0.00 in0.0 mm
04:24 AM 30.7°F-0.7°C 25.3°F-3.7°C 80% 2.2 mph NNW3.5 kmh NNW 6.0 mph9.7 kmh 30.03 in1016.9 mb 0.00 in0.0 mm 0.00 in/hr0.0 mm/hr 0.00 in0.0 mm
04:23 AM 30.9°F-0.6°C 25.5°F-3.6°C 80% 2.2 mph NNW3.5 kmh NNW 6.0 mph9.7 kmh 30.03 in1016.9 mb 0.00 in0.0 mm 0.00 in/hr0.0 mm/hr 0.00 in0.0 mm
04:22 AM 30.9°F-0.6°C 25.5°F-3.6°C 80% 1.6 mph NNW2.6 kmh NNW 6.0 mph9.7 kmh 30.03 in1016.9 mb 0.00 in0.0 mm 0.00 in/hr0.0 mm/hr 0.00 in0.0 mm
04:21 AM 31.1°F-0.5°C 25.7°F-3.5°C 80% 0.7 mph NNW1.1 kmh NNW 6.0 mph9.7 kmh 30.03 in1016.9 mb 0.00 in0.0 mm 0.00 in/hr0.0 mm/hr 0.00 in0.0 mm
04:20 AM 31.1°F-0.5°C 25.7°F-3.5°C 80% 2.2 mph NNW3.5 kmh NNW 6.0 mph9.7 kmh 30.03 in1016.9 mb 0.00 in0.0 mm 0.00 in/hr0.0 mm/hr 0.00 in0.0 mm
04:19 AM 31.1°F-0.5°C 25.7°F-3.5°C 80% 3.8 mph NNW6.1 kmh NNW 6.0 mph9.7 kmh 30.03 in1016.9 mb 0.00 in0.0 mm 0.00 in/hr0.0 mm/hr 0.00 in0.0 mm
04:18 AM 31.1°F-0.5°C 26.0°F-3.3°C 81% 3.8 mph NW6.1 kmh NW 6.0 mph9.7 kmh 30.03 in1016.9 mb 0.00 in0.0 mm 0.00 in/hr0.0 mm/hr 0.00 in0.0 mm
04:17 AM 31.1°F-0.5°C 26.0°F-3.3°C 81% 3.8 mph NW6.1 kmh NW 6.9 mph11.1 kmh 30.03 in1016.9 mb 0.00 in0.0 mm 0.00 in/hr0.0 mm/hr 0.00 in0.0 mm
04:16 AM 31.1°F-0.5°C 26.0°F-3.3°C 81% 3.1 mph NNW5.0 kmh NNW 6.9 mph11.1 kmh 30.03 in1016.9 mb 0.00 in0.0 mm 0.00 in/hr0.0 mm/hr 0.00 in0.0 mm
04:15 AM 30.9°F-0.6°C 25.8°F-3.4°C 81% 3.8 mph NNW6.1 kmh NNW 6.9 mph11.1 kmh 30.03 in1016.9 mb 0.00 in0.0 mm 0.00 in/hr0.0 mm/hr 0.00 in0.0 mm
04:14 AM 30.9°F-0.6°C 25.8°F-3.4°C 81% 1.6 mph NNW2.6 kmh NNW 6.9 mph11.1 kmh 30.03 in1016.9 mb 0.00 in0.0 mm 0.00 in/hr0.0 mm/hr 0.00 in0.0 mm
04:13 AM 30.9°F-0.6°C 25.8°F-3.4°C 81% 1.6 mph N2.6 kmh N 6.9 mph11.1 kmh 30.03 in1016.9 mb 0.00 in0.0 mm 0.00 in/hr0.0 mm/hr 0.00 in0.0 mm
04:12 AM 30.9°F-0.6°C 25.8°F-3.4°C 81% 1.6 mph NNW2.6 kmh NNW 6.9 mph11.1 kmh 30.03 in1016.9 mb 0.00 in0.0 mm 0.00 in/hr0.0 mm/hr 0.00 in0.0 mm
04:11 AM 30.9°F-0.6°C 25.8°F-3.4°C 81% 3.1 mph N5.0 kmh N 7.6 mph12.2 kmh 30.03 in1016.9 mb 0.00 in0.0 mm 0.00 in/hr0.0 mm/hr 0.00 in0.0 mm
04:10 AM 30.9°F-0.6°C 25.8°F-3.4°C 81% 3.1 mph N5.0 kmh N 7.6 mph12.2 kmh 30.03 in1016.9 mb 0.00 in0.0 mm 0.00 in/hr0.0 mm/hr 0.00 in0.0 mm
04:09 AM 30.9°F-0.6°C 25.8°F-3.4°C 81% 2.2 mph NNW3.5 kmh NNW 7.6 mph12.2 kmh 30.03 in1016.9 mb 0.00 in0.0 mm 0.00 in/hr0.0 mm/hr 0.00 in0.0 mm
04:08 AM 30.9°F-0.6°C 25.8°F-3.4°C 81% 3.1 mph NNW5.0 kmh NNW 7.6 mph12.2 kmh 30.03 in1016.9 mb 0.00 in0.0 mm 0.00 in/hr0.0 mm/hr 0.00 in0.0 mm
04:07 AM 30.9°F-0.6°C 25.8°F-3.4°C 81% 3.8 mph NNW6.1 kmh NNW 7.6 mph12.2 kmh 30.03 in1016.9 mb 0.00 in0.0 mm 0.00 in/hr0.0 mm/hr 0.00 in0.0 mm
04:06 AM 30.9°F-0.6°C 25.8°F-3.4°C 81% 3.8 mph N6.1 kmh N 7.6 mph12.2 kmh 30.03 in1016.9 mb 0.00 in0.0 mm 0.00 in/hr0.0 mm/hr 0.00 in0.0 mm
04:05 AM 30.9°F-0.6°C 25.8°F-3.4°C 81% 3.8 mph NNW6.1 kmh NNW 7.6 mph12.2 kmh 30.03 in1016.9 mb 0.00 in0.0 mm 0.00 in/hr0.0 mm/hr 0.00 in0.0 mm
04:04 AM 30.9°F-0.6°C 25.8°F-3.4°C 81% 3.8 mph NNW6.1 kmh NNW 7.6 mph12.2 kmh 30.03 in1016.9 mb 0.00 in0.0 mm 0.00 in/hr0.0 mm/hr 0.00 in0.0 mm
04:03 AM 30.9°F-0.6°C 25.8°F-3.4°C 81% 3.1 mph N5.0 kmh N 7.6 mph12.2 kmh 30.03 in1016.9 mb 0.00 in0.0 mm 0.00 in/hr0.0 mm/hr 0.00 in0.0 mm
04:02 AM 30.7°F-0.7°C 25.6°F-3.6°C 81% 3.8 mph N6.1 kmh N 7.6 mph12.2 kmh 30.03 in1016.9 mb 0.00 in0.0 mm 0.00 in/hr0.0 mm/hr 0.00 in0.0 mm
04:01 AM 30.7°F-0.7°C 25.6°F-3.6°C 81% 3.1 mph N5.0 kmh N 7.6 mph12.2 kmh 30.02 in1016.6 mb 0.00 in0.0 mm 0.00 in/hr0.0 mm/hr 0.00 in0.0 mm
04:00 AM 30.7°F-0.7°C 25.6°F-3.6°C 81% 3.1 mph N5.0 kmh N 7.6 mph12.2 kmh 30.03 in1016.9 mb 0.00 in0.0 mm 0.00 in/hr0.0 mm/hr 0.00 in0.0 mm
03:59 AM 30.7°F-0.7°C 25.6°F-3.6°C 81% 3.1 mph N5.0 kmh N 7.6 mph12.2 kmh 30.03 in1016.9 mb 0.00 in0.0 mm 0.00 in/hr0.0 mm/hr 0.00 in0.0 mm
03:58 AM 30.7°F-0.7°C 25.6°F-3.6°C 81% 5.4 mph N8.7 kmh N 7.6 mph12.2 kmh 30.03 in1016.9 mb 0.00 in0.0 mm 0.00 in/hr0.0 mm/hr 0.00 in0.0 mm
03:57 AM 30.6°F-0.8°C 25.4°F-3.7°C 81% 3.8 mph N6.1 kmh N 7.6 mph12.2 kmh 30.03 in1016.9 mb 0.00 in0.0 mm 0.00 in/hr0.0 mm/hr 0.00 in0.0 mm
03:56 AM 30.4°F-0.9°C 25.3°F-3.7°C 81% 4.5 mph NNW7.2 kmh NNW 6.9 mph11.1 kmh 30.03 in1016.9 mb 0.00 in0.0 mm 0.00 in/hr0.0 mm/hr 0.00 in0.0 mm
03:55 AM 30.6°F-0.8°C 25.4°F-3.7°C 81% 3.1 mph N5.0 kmh N 6.9 mph11.1 kmh 30.03 in1016.9 mb 0.00 in0.0 mm 0.00 in/hr0.0 mm/hr 0.00 in0.0 mm
03:54 AM 30.6°F-0.8°C 25.4°F-3.7°C 81% 3.1 mph N5.0 kmh N 6.9 mph11.1 kmh 30.03 in1016.9 mb 0.00 in0.0 mm 0.00 in/hr0.0 mm/hr 0.00 in0.0 mm
03:53 AM 30.4°F-0.9°C 25.0°F-3.9°C 80% 3.8 mph NNW6.1 kmh NNW 6.9 mph11.1 kmh 30.03 in1016.9 mb 0.00 in0.0 mm 0.00 in/hr0.0 mm/hr 0.00 in0.0 mm
03:52 AM 30.4°F-0.9°C 25.0°F-3.9°C 80% 2.2 mph NNW3.5 kmh NNW 6.9 mph11.1 kmh 30.03 in1016.9 mb 0.00 in0.0 mm 0.00 in/hr0.0 mm/hr 0.00 in0.0 mm
03:51 AM 30.4°F-0.9°C 25.0°F-3.9°C 80% 3.1 mph NNW5.0 kmh NNW 6.9 mph11.1 kmh 30.03 in1016.9 mb 0.00 in0.0 mm 0.00 in/hr0.0 mm/hr 0.00 in0.0 mm
03:50 AM 30.6°F-0.8°C 25.1°F-3.8°C 80% 3.1 mph NNW5.0 kmh NNW 6.9 mph11.1 kmh 30.03 in1016.9 mb 0.00 in0.0 mm 0.00 in/hr0.0 mm/hr 0.00 in0.0 mm
03:49 AM 30.4°F-0.9°C 24.4°F-4.2°C 78% 2.2 mph NNW3.5 kmh NNW 5.4 mph8.7 kmh 30.03 in1016.9 mb 0.00 in0.0 mm 0.00 in/hr0.0 mm/hr 0.00 in0.0 mm
03:48 AM 30.4°F-0.9°C 24.4°F-4.2°C 78% 2.2 mph NNW3.5 kmh NNW 5.4 mph8.7 kmh 30.03 in1016.9 mb 0.00 in0.0 mm 0.00 in/hr0.0 mm/hr 0.00 in0.0 mm
03:47 AM 30.6°F-0.8°C 24.5°F-4.2°C 78% 2.2 mph NNW3.5 kmh NNW 5.4 mph8.7 kmh 30.03 in1016.9 mb 0.00 in0.0 mm 0.00 in/hr0.0 mm/hr 0.00 in0.0 mm
03:46 AM 30.6°F-0.8°C 24.5°F-4.2°C 78% 2.2 mph NNW3.5 kmh NNW 5.4 mph8.7 kmh 30.03 in1016.9 mb 0.00 in0.0 mm 0.00 in/hr0.0 mm/hr 0.00 in0.0 mm
03:45 AM 30.6°F-0.8°C 24.5°F-4.2°C 78% 3.1 mph N5.0 kmh N 5.4 mph8.7 kmh 30.03 in1016.9 mb 0.00 in0.0 mm 0.00 in/hr0.0 mm/hr 0.00 in0.0 mm
03:44 AM 30.6°F-0.8°C 24.5°F-4.2°C 78% 0.7 mph N1.1 kmh N 4.5 mph7.2 kmh 30.03 in1016.9 mb 0.00 in0.0 mm 0.00 in/hr0.0 mm/hr 0.00 in0.0 mm
03:43 AM 30.6°F-0.8°C 24.5°F-4.2°C 78% 2.2 mph N3.5 kmh N 4.5 mph7.2 kmh 30.03 in1016.9 mb 0.00 in0.0 mm 0.00 in/hr0.0 mm/hr 0.00 in0.0 mm
03:42 AM 30.6°F-0.8°C 24.5°F-4.2°C 78% 2.2 mph N3.5 kmh N 4.5 mph7.2 kmh 30.03 in1016.9 mb 0.00 in0.0 mm 0.00 in/hr0.0 mm/hr 0.00 in0.0 mm
03:41 AM 30.7°F-0.7°C 24.4°F-4.2°C 77% 1.6 mph N2.6 kmh N 4.5 mph7.2 kmh 30.03 in1016.9 mb 0.00 in0.0 mm 0.00 in/hr0.0 mm/hr 0.00 in0.0 mm
03:40 AM 30.7°F-0.7°C 24.4°F-4.2°C 77% 2.2 mph N3.5 kmh N 4.5 mph7.2 kmh 30.03 in1016.9 mb 0.00 in0.0 mm 0.00 in/hr0.0 mm/hr 0.00 in0.0 mm
03:39 AM 30.7°F-0.7°C 24.4°F-4.2°C 77% 1.6 mph N2.6 kmh N 4.5 mph7.2 kmh 30.03 in1016.9 mb 0.00 in0.0 mm 0.00 in/hr0.0 mm/hr 0.00 in0.0 mm
03:38 AM 30.7°F-0.7°C 24.4°F-4.2°C 77% 1.6 mph N2.6 kmh N 4.5 mph7.2 kmh 30.03 in1016.9 mb 0.00 in0.0 mm 0.00 in/hr0.0 mm/hr 0.00 in0.0 mm
03:37 AM 30.9°F-0.6°C 24.6°F-4.1°C 77% 1.6 mph N2.6 kmh N 4.5 mph7.2 kmh 30.02 in1016.6 mb 0.00 in0.0 mm 0.00 in/hr0.0 mm/hr 0.00 in0.0 mm
03:36 AM 30.9°F-0.6°C 24.6°F-4.1°C 77% 1.6 mph N2.6 kmh N 6.0 mph9.7 kmh 30.02 in1016.6 mb 0.00 in0.0 mm 0.00 in/hr0.0 mm/hr 0.00 in0.0 mm
03:35 AM 30.9°F-0.6°C 24.6°F-4.1°C 77% 2.2 mph N3.5 kmh N 6.0 mph9.7 kmh 30.02 in1016.6 mb 0.00 in0.0 mm 0.00 in/hr0.0 mm/hr 0.00 in0.0 mm
03:34 AM 30.9°F-0.6°C 24.6°F-4.1°C 77% 1.6 mph N2.6 kmh N 6.0 mph9.7 kmh 30.02 in1016.6 mb 0.00 in0.0 mm 0.00 in/hr0.0 mm/hr 0.00 in0.0 mm
03:33 AM 31.1°F-0.5°C 24.8°F-4.0°C 77% 1.6 mph N2.6 kmh N 6.0 mph9.7 kmh 30.02 in1016.6 mb 0.00 in0.0 mm 0.00 in/hr0.0 mm/hr 0.00 in0.0 mm
03:32 AM 31.1°F-0.5°C 24.8°F-4.0°C 77% 2.2 mph NNW3.5 kmh NNW 6.0 mph9.7 kmh 30.03 in1016.9 mb 0.00 in0.0 mm 0.00 in/hr0.0 mm/hr 0.00 in0.0 mm
03:31 AM 31.1°F-0.5°C 24.8°F-4.0°C 77% 2.2 mph NNW3.5 kmh NNW 6.0 mph9.7 kmh 30.03 in1016.9 mb 0.00 in0.0 mm 0.00 in/hr0.0 mm/hr 0.00 in0.0 mm
03:30 AM 31.1°F-0.5°C 24.8°F-4.0°C 77% 2.2 mph NNW3.5 kmh NNW 6.0 mph9.7 kmh 30.03 in1016.9 mb 0.00 in0.0 mm 0.00 in/hr0.0 mm/hr 0.00 in0.0 mm
03:29 AM 31.1°F-0.5°C 24.8°F-4.0°C 77% 3.1 mph NNW5.0 kmh NNW 6.0 mph9.7 kmh 30.02 in1016.6 mb 0.00 in0.0 mm 0.00 in/hr0.0 mm/hr 0.00 in0.0 mm
03:28 AM 31.1°F-0.5°C 24.8°F-4.0°C 77% 3.1 mph NNW5.0 kmh NNW 6.0 mph9.7 kmh 30.02 in1016.6 mb 0.00 in0.0 mm 0.00 in/hr0.0 mm/hr 0.00 in0.0 mm
03:27 AM 31.1°F-0.5°C 24.8°F-4.0°C 77% 3.1 mph NNW5.0 kmh NNW 6.0 mph9.7 kmh 30.03 in1016.9 mb 0.00 in0.0 mm 0.00 in/hr0.0 mm/hr 0.00 in0.0 mm
03:26 AM 31.1°F-0.5°C 24.8°F-4.0°C 77% 3.1 mph NNW5.0 kmh NNW 6.0 mph9.7 kmh 30.02 in1016.6 mb 0.00 in0.0 mm 0.00 in/hr0.0 mm/hr 0.00 in0.0 mm
03:25 AM 31.1°F-0.5°C 24.8°F-4.0°C 77% 3.8 mph NNW6.1 kmh NNW 5.4 mph8.7 kmh 30.02 in1016.6 mb 0.00 in0.0 mm 0.00 in/hr0.0 mm/hr 0.00 in0.0 mm
03:24 AM 31.3°F-0.4°C 24.9°F-3.9°C 77% 3.8 mph NNW6.1 kmh NNW 5.4 mph8.7 kmh 30.02 in1016.6 mb 0.00 in0.0 mm 0.00 in/hr0.0 mm/hr 0.00 in0.0 mm
03:23 AM 31.3°F-0.4°C 24.9°F-3.9°C 77% 3.8 mph NNW6.1 kmh NNW 6.9 mph11.1 kmh 30.02 in1016.6 mb 0.00 in0.0 mm 0.00 in/hr0.0 mm/hr 0.00 in0.0 mm
03:22 AM 31.3°F-0.4°C 24.9°F-3.9°C 77% 3.8 mph N6.1 kmh N 6.9 mph11.1 kmh 30.02 in1016.6 mb 0.00 in0.0 mm 0.00 in/hr0.0 mm/hr 0.00 in0.0 mm
03:21 AM 31.3°F-0.4°C 24.9°F-3.9°C 77% 3.8 mph N6.1 kmh N 6.9 mph11.1 kmh 30.02 in1016.6 mb 0.00 in0.0 mm 0.00 in/hr0.0 mm/hr 0.00 in0.0 mm
03:20 AM 31.3°F-0.4°C 24.9°F-3.9°C 77% 3.8 mph N6.1 kmh N 6.9 mph11.1 kmh 30.02 in1016.6 mb 0.00 in0.0 mm 0.00 in/hr0.0 mm/hr 0.00 in0.0 mm
03:19 AM 31.3°F-0.4°C 24.9°F-3.9°C 77% 3.8 mph N6.1 kmh N 6.9 mph11.1 kmh 30.02 in1016.6 mb 0.00 in0.0 mm 0.00 in/hr0.0 mm/hr 0.00 in0.0 mm
03:18 AM 31.3°F-0.4°C 24.9°F-3.9°C 77% 3.8 mph N6.1 kmh N 7.6 mph12.2 kmh 30.02 in1016.6 mb 0.00 in0.0 mm 0.00 in/hr0.0 mm/hr 0.00 in0.0 mm
03:17 AM 31.3°F-0.4°C 24.9°F-3.9°C 77% 3.8 mph N6.1 kmh N 7.6 mph12.2 kmh 30.02 in1016.6 mb 0.00 in0.0 mm 0.00 in/hr0.0 mm/hr 0.00 in0.0 mm
03:16 AM 31.3°F-0.4°C 24.9°F-3.9°C 77% 3.8 mph N6.1 kmh N 7.6 mph12.2 kmh 30.02 in1016.6 mb 0.00 in0.0 mm 0.00 in/hr0.0 mm/hr 0.00 in0.0 mm
03:15 AM 31.3°F-0.4°C 24.9°F-3.9°C 77% 3.8 mph N6.1 kmh N 7.6 mph12.2 kmh 30.02 in1016.6 mb 0.00 in0.0 mm 0.00 in/hr0.0 mm/hr 0.00 in0.0 mm
03:14 AM 31.3°F-0.4°C 24.9°F-3.9°C 77% 4.5 mph N7.2 kmh N 7.6 mph12.2 kmh 30.02 in1016.6 mb 0.00 in0.0 mm 0.00 in/hr0.0 mm/hr 0.00 in0.0 mm
03:13 AM 31.5°F-0.3°C 25.1°F-3.8°C 77% 3.8 mph N6.1 kmh N 7.6 mph12.2 kmh 30.02 in1016.6 mb 0.00 in0.0 mm 0.00 in/hr0.0 mm/hr 0.00 in0.0 mm
03:12 AM 31.5°F-0.3°C 25.1°F-3.8°C 77% 4.5 mph N7.2 kmh N 7.6 mph12.2 kmh 30.02 in1016.6 mb 0.00 in0.0 mm 0.00 in/hr0.0 mm/hr 0.00 in0.0 mm
03:11 AM 31.5°F-0.3°C 25.1°F-3.8°C 77% 3.8 mph N6.1 kmh N 7.6 mph12.2 kmh 30.02 in1016.6 mb 0.00 in0.0 mm 0.00 in/hr0.0 mm/hr 0.00 in0.0 mm
03:10 AM 31.5°F-0.3°C 25.1°F-3.8°C 77% 3.1 mph N5.0 kmh N 8.3 mph13.4 kmh 30.02 in1016.6 mb 0.00 in0.0 mm 0.00 in/hr0.0 mm/hr 0.00 in0.0 mm
03:09 AM 31.5°F-0.3°C 25.1°F-3.8°C 77% 4.5 mph NNW7.2 kmh NNW 9.2 mph14.8 kmh 30.02 in1016.6 mb 0.00 in0.0 mm 0.00 in/hr0.0 mm/hr 0.00 in0.0 mm
03:08 AM 31.6°F-0.2°C 25.3°F-3.7°C 77% 3.1 mph NNW5.0 kmh NNW 9.2 mph14.8 kmh 30.02 in1016.6 mb 0.00 in0.0 mm 0.00 in/hr0.0 mm/hr 0.00 in0.0 mm
03:07 AM 31.5°F-0.3°C 25.1°F-3.8°C 77% 3.8 mph NNW6.1 kmh NNW 9.8 mph15.8 kmh 30.02 in1016.6 mb 0.00 in0.0 mm 0.00 in/hr0.0 mm/hr 0.00 in0.0 mm
03:06 AM 31.6°F-0.2°C 25.3°F-3.7°C 77% 3.8 mph N6.1 kmh N 9.8 mph15.8 kmh 30.02 in1016.6 mb 0.00 in0.0 mm 0.00 in/hr0.0 mm/hr 0.00 in0.0 mm
03:05 AM 31.6°F-0.2°C 25.3°F-3.7°C 77% 5.4 mph N8.7 kmh N 9.8 mph15.8 kmh 30.02 in1016.6 mb 0.00 in0.0 mm 0.00 in/hr0.0 mm/hr 0.00 in0.0 mm
03:04 AM 31.5°F-0.3°C 25.1°F-3.8°C 77% 4.5 mph N7.2 kmh N 11.4 mph18.3 kmh 30.02 in1016.6 mb 0.00 in0.0 mm 0.00 in/hr0.0 mm/hr 0.00 in0.0 mm
03:03 AM 31.6°F-0.2°C 25.0°F-3.9°C 76% 3.8 mph N6.1 kmh N 11.4 mph18.3 kmh 30.02 in1016.6 mb 0.00 in0.0 mm 0.00 in/hr0.0 mm/hr 0.00 in0.0 mm
03:02 AM 31.6°F-0.2°C 25.0°F-3.9°C 76% 5.4 mph NNE8.7 kmh NNE 11.4 mph18.3 kmh 30.02 in1016.6 mb 0.00 in0.0 mm 0.00 in/hr0.0 mm/hr 0.00 in0.0 mm
03:01 AM 31.6°F-0.2°C 25.3°F-3.7°C 77% 4.5 mph NNE7.2 kmh NNE 11.4 mph18.3 kmh 30.02 in1016.6 mb 0.00 in0.0 mm 0.00 in/hr0.0 mm/hr 0.00 in0.0 mm
03:00 AM 31.6°F-0.2°C 25.3°F-3.7°C 77% 3.8 mph NNE6.1 kmh NNE 11.4 mph18.3 kmh 30.02 in1016.6 mb 0.00 in0.0 mm 0.00 in/hr0.0 mm/hr 0.00 in0.0 mm
02:59 AM 31.8°F-0.1°C 25.5°F-3.6°C 77% 5.4 mph NNE8.7 kmh NNE 11.4 mph18.3 kmh 30.02 in1016.6 mb 0.00 in0.0 mm 0.00 in/hr0.0 mm/hr 0.00 in0.0 mm
02:58 AM 31.8°F-0.1°C 25.5°F-3.6°C 77% 5.4 mph NNE8.7 kmh NNE 11.4 mph18.3 kmh 30.02 in1016.6 mb 0.00 in0.0 mm 0.00 in/hr0.0 mm/hr 0.00 in0.0 mm
02:57 AM 31.6°F-0.2°C 25.3°F-3.7°C 77% 6.9 mph NNE11.1 kmh NNE 11.4 mph18.3 kmh 30.02 in1016.6 mb 0.00 in0.0 mm 0.00 in/hr0.0 mm/hr 0.00 in0.0 mm
02:56 AM 31.8°F-0.1°C 25.8°F-3.4°C 78% 6.0 mph NNE9.7 kmh NNE 11.4 mph18.3 kmh 30.02 in1016.6 mb 0.00 in0.0 mm 0.00 in/hr0.0 mm/hr 0.00 in0.0 mm
02:55 AM 31.6°F-0.2°C 26.2°F-3.2°C 80% 6.0 mph NNE9.7 kmh NNE 11.4 mph18.3 kmh 30.02 in1016.6 mb 0.00 in0.0 mm 0.00 in/hr0.0 mm/hr 0.00 in0.0 mm
02:54 AM 31.6°F-0.2°C 26.2°F-3.2°C 80% 5.4 mph N8.7 kmh N 11.4 mph18.3 kmh 30.02 in1016.6 mb 0.00 in0.0 mm 0.00 in/hr0.0 mm/hr 0.00 in0.0 mm
02:53 AM 31.6°F-0.2°C 26.5°F-3.1°C 81% 5.4 mph N8.7 kmh N 11.4 mph18.3 kmh 30.02 in1016.6 mb 0.00 in0.0 mm 0.00 in/hr0.0 mm/hr 0.00 in0.0 mm
02:52 AM 31.1°F-0.5°C 26.3°F-3.2°C 82% 6.0 mph N9.7 kmh N 11.4 mph18.3 kmh 30.02 in1016.6 mb 0.00 in0.0 mm 0.00 in/hr0.0 mm/hr 0.00 in0.0 mm
02:51 AM 31.1°F-0.5°C 26.3°F-3.2°C 82% 3.8 mph N6.1 kmh N 10.7 mph17.2 kmh 30.02 in1016.6 mb 0.00 in0.0 mm 0.00 in/hr0.0 mm/hr 0.00 in0.0 mm
02:50 AM 31.1°F-0.5°C 26.3°F-3.2°C 82% 6.0 mph N9.7 kmh N 10.7 mph17.2 kmh 30.02 in1016.6 mb 0.00 in0.0 mm 0.00 in/hr0.0 mm/hr 0.00 in0.0 mm
02:49 AM 31.1°F-0.5°C 26.3°F-3.2°C 82% 3.1 mph N5.0 kmh N 6.0 mph9.7 kmh 30.02 in1016.6 mb 0.00 in0.0 mm 0.00 in/hr0.0 mm/hr 0.00 in0.0 mm
02:48 AM 31.1°F-0.5°C 26.3°F-3.2°C 82% 2.2 mph N3.5 kmh N 6.0 mph9.7 kmh 30.02 in1016.6 mb 0.00 in0.0 mm 0.00 in/hr0.0 mm/hr 0.00 in0.0 mm
02:47 AM 31.1°F-0.5°C 26.3°F-3.2°C 82% 2.2 mph N3.5 kmh N 6.0 mph9.7 kmh 30.02 in1016.6 mb 0.00 in0.0 mm 0.00 in/hr0.0 mm/hr 0.00 in0.0 mm
02:46 AM 31.1°F-0.5°C 26.3°F-3.2°C 82% 1.6 mph N2.6 kmh N 6.0 mph9.7 kmh 30.02 in1016.6 mb 0.00 in0.0 mm 0.00 in/hr0.0 mm/hr 0.00 in0.0 mm
02:45 AM 31.1°F-0.5°C 26.0°F-3.3°C 81% 2.2 mph NNW3.5 kmh NNW 6.0 mph9.7 kmh 30.02 in1016.6 mb 0.00 in0.0 mm 0.00 in/hr0.0 mm/hr 0.00 in0.0 mm
02:44 AM 31.3°F-0.4°C 26.1°F-3.3°C 81% 3.8 mph N6.1 kmh N 6.0 mph9.7 kmh 30.02 in1016.6 mb 0.00 in0.0 mm 0.00 in/hr0.0 mm/hr 0.00 in0.0 mm
02:43 AM 31.3°F-0.4°C 26.1°F-3.3°C 81% 2.2 mph N3.5 kmh N 6.0 mph9.7 kmh 30.02 in1016.6 mb 0.00 in0.0 mm 0.00 in/hr0.0 mm/hr 0.00 in0.0 mm
02:42 AM 31.3°F-0.4°C 26.1°F-3.3°C 81% 3.8 mph N6.1 kmh N 6.0 mph9.7 kmh 30.02 in1016.6 mb 0.00 in0.0 mm 0.00 in/hr0.0 mm/hr 0.00 in0.0 mm
02:41 AM 31.3°F-0.4°C 26.1°F-3.3°C 81% 3.1 mph NNW5.0 kmh NNW 6.0 mph9.7 kmh 30.02 in1016.6 mb 0.00 in0.0 mm 0.00 in/hr0.0 mm/hr 0.00 in0.0 mm
02:40 AM 31.5°F-0.3°C 26.3°F-3.2°C 81% 2.2 mph NNW3.5 kmh NNW 6.0 mph9.7 kmh 30.03 in1016.9 mb 0.00 in0.0 mm 0.00 in/hr0.0 mm/hr 0.00 in0.0 mm
02:39 AM 31.3°F-0.4°C 26.1°F-3.3°C 81% 3.8 mph N6.1 kmh N 6.0 mph9.7 kmh 30.02 in1016.6 mb 0.00 in0.0 mm 0.00 in/hr0.0 mm/hr 0.00 in0.0 mm
02:38 AM 31.5°F-0.3°C 26.0°F-3.3°C 80% 1.6 mph N2.6 kmh N 7.6 mph12.2 kmh 30.02 in1016.6 mb 0.00 in0.0 mm 0.00 in/hr0.0 mm/hr 0.00 in0.0 mm
02:37 AM 31.5°F-0.3°C 26.0°F-3.3°C 80% 2.2 mph N3.5 kmh N 7.6 mph12.2 kmh 30.02 in1016.6 mb 0.00 in0.0 mm 0.00 in/hr0.0 mm/hr 0.00 in0.0 mm
02:36 AM 31.5°F-0.3°C 26.0°F-3.3°C 80% 3.1 mph N5.0 kmh N 7.6 mph12.2 kmh 30.03 in1016.9 mb 0.00 in0.0 mm 0.00 in/hr0.0 mm/hr 0.00 in0.0 mm
02:35 AM 31.5°F-0.3°C 26.0°F-3.3°C 80% 2.2 mph N3.5 kmh N 7.6 mph12.2 kmh 30.03 in1016.9 mb 0.00 in0.0 mm 0.00 in/hr0.0 mm/hr 0.00 in0.0 mm
02:34 AM 31.6°F-0.2°C 26.2°F-3.2°C 80% 1.6 mph N2.6 kmh N 7.6 mph12.2 kmh 30.03 in1016.9 mb 0.00 in0.0 mm 0.00 in/hr0.0 mm/hr 0.00 in0.0 mm
02:33 AM 31.6°F-0.2°C 26.2°F-3.2°C 80% 2.2 mph N3.5 kmh N 7.6 mph12.2 kmh 30.03 in1016.9 mb 0.00 in0.0 mm 0.00 in/hr0.0 mm/hr 0.00 in0.0 mm
02:32 AM 31.8°F-0.1°C 26.4°F-3.1°C 80% 2.2 mph N3.5 kmh N 9.8 mph15.8 kmh 30.03 in1016.9 mb 0.00 in0.0 mm 0.00 in/hr0.0 mm/hr 0.00 in0.0 mm
02:31 AM 31.8°F-0.1°C 26.4°F-3.1°C 80% 3.1 mph N5.0 kmh N 9.8 mph15.8 kmh 30.03 in1016.9 mb 0.00 in0.0 mm 0.00 in/hr0.0 mm/hr 0.00 in0.0 mm
02:30 AM 31.8°F-0.1°C 26.4°F-3.1°C 80% 3.1 mph N5.0 kmh N 9.8 mph15.8 kmh 30.03 in1016.9 mb 0.00 in0.0 mm 0.00 in/hr0.0 mm/hr 0.00 in0.0 mm
02:29 AM 32.0°F0.0°C 25.9°F-3.4°C 78% 2.2 mph N3.5 kmh N 9.8 mph15.8 kmh 30.03 in1016.9 mb 0.00 in0.0 mm 0.00 in/hr0.0 mm/hr 0.00 in0.0 mm
02:28 AM 32.0°F0.0°C 25.9°F-3.4°C 78% 3.1 mph N5.0 kmh N 9.8 mph15.8 kmh 30.03 in1016.9 mb 0.00 in0.0 mm 0.00 in/hr0.0 mm/hr 0.00 in0.0 mm
02:27 AM 32.0°F0.0°C 25.9°F-3.4°C 78% 3.8 mph N6.1 kmh N 9.8 mph15.8 kmh 30.03 in1016.9 mb 0.00 in0.0 mm 0.00 in/hr0.0 mm/hr 0.00 in0.0 mm
02:26 AM 32.0°F0.0°C 25.9°F-3.4°C 78% 3.8 mph N6.1 kmh N 9.8 mph15.8 kmh 30.03 in1016.9 mb 0.00 in0.0 mm 0.00 in/hr0.0 mm/hr 0.00 in0.0 mm
02:25 AM 32.0°F0.0°C 26.6°F-3.0°C 80% 4.5 mph N7.2 kmh N 10.7 mph17.2 kmh 30.03 in1016.9 mb 0.00 in0.0 mm 0.00 in/hr0.0 mm/hr 0.00 in0.0 mm
02:24 AM 31.8°F-0.1°C 26.7°F-2.9°C 81% 5.4 mph N8.7 kmh N 10.7 mph17.2 kmh 30.03 in1016.9 mb 0.00 in0.0 mm 0.00 in/hr0.0 mm/hr 0.00 in0.0 mm
02:23 AM 31.8°F-0.1°C 26.7°F-2.9°C 81% 4.5 mph N7.2 kmh N 10.7 mph17.2 kmh 30.02 in1016.6 mb 0.00 in0.0 mm 0.00 in/hr0.0 mm/hr 0.00 in0.0 mm
02:22 AM 31.8°F-0.1°C 26.7°F-2.9°C 81% 6.0 mph N9.7 kmh N 10.7 mph17.2 kmh 30.02 in1016.6 mb 0.00 in0.0 mm 0.00 in/hr0.0 mm/hr 0.00 in0.0 mm
02:21 AM 31.8°F-0.1°C 27.0°F-2.8°C 82% 3.8 mph N6.1 kmh N 10.7 mph17.2 kmh 30.02 in1016.6 mb 0.00 in0.0 mm 0.00 in/hr0.0 mm/hr 0.00 in0.0 mm
02:20 AM 31.8°F-0.1°C 27.0°F-2.8°C 82% 5.4 mph N8.7 kmh N 10.7 mph17.2 kmh 30.02 in1016.6 mb 0.00 in0.0 mm 0.00 in/hr0.0 mm/hr 0.00 in0.0 mm
02:19 AM 31.6°F-0.2°C 26.8°F-2.9°C 82% 6.9 mph N11.1 kmh N 10.7 mph17.2 kmh 30.02 in1016.6 mb 0.00 in0.0 mm 0.00 in/hr0.0 mm/hr 0.00 in0.0 mm
02:18 AM 31.6°F-0.2°C 26.8°F-2.9°C 82% 5.4 mph NNW8.7 kmh NNW 10.7 mph17.2 kmh 30.02 in1016.6 mb 0.00 in0.0 mm 0.00 in/hr0.0 mm/hr 0.00 in0.0 mm
02:17 AM 31.6°F-0.2°C 26.8°F-2.9°C 82% 4.5 mph NNW7.2 kmh NNW 10.7 mph17.2 kmh 30.02 in1016.6 mb 0.00 in0.0 mm 0.00 in/hr0.0 mm/hr 0.00 in0.0 mm
02:16 AM 31.8°F-0.1°C 27.0°F-2.8°C 82% 3.1 mph NNW5.0 kmh NNW 10.7 mph17.2 kmh 30.02 in1016.6 mb 0.00 in0.0 mm 0.00 in/hr0.0 mm/hr 0.00 in0.0 mm
02:15 AM 31.8°F-0.1°C 27.0°F-2.8°C 82% 6.0 mph NNW9.7 kmh NNW 10.7 mph17.2 kmh 30.02 in1016.6 mb 0.00 in0.0 mm 0.00 in/hr0.0 mm/hr 0.00 in0.0 mm
02:14 AM 32.0°F0.0°C 26.9°F-2.8°C 81% 3.8 mph NNW6.1 kmh NNW 10.7 mph17.2 kmh 30.02 in1016.6 mb 0.00 in0.0 mm 0.00 in/hr0.0 mm/hr 0.00 in0.0 mm
02:13 AM 32.0°F0.0°C 26.9°F-2.8°C 81% 5.4 mph NNW8.7 kmh NNW 10.7 mph17.2 kmh 30.02 in1016.6 mb 0.00 in0.0 mm 0.00 in/hr0.0 mm/hr 0.00 in0.0 mm
02:12 AM 31.8°F-0.1°C 27.0°F-2.8°C 82% 5.4 mph NNW8.7 kmh NNW 8.3 mph13.4 kmh 30.02 in1016.6 mb 0.00 in0.0 mm 0.00 in/hr0.0 mm/hr 0.00 in0.0 mm
02:11 AM 32.0°F0.0°C 26.9°F-2.8°C 81% 4.5 mph N7.2 kmh N 8.3 mph13.4 kmh 30.02 in1016.6 mb 0.00 in0.0 mm 0.00 in/hr0.0 mm/hr 0.00 in0.0 mm
02:10 AM 32.0°F0.0°C 26.9°F-2.8°C 81% 3.8 mph N6.1 kmh N 8.3 mph13.4 kmh 30.02 in1016.6 mb 0.00 in0.0 mm 0.00 in/hr0.0 mm/hr 0.00 in0.0 mm
02:09 AM 32.0°F0.0°C 26.9°F-2.8°C 81% 4.5 mph N7.2 kmh N 9.8 mph15.8 kmh 30.02 in1016.6 mb 0.00 in0.0 mm 0.00 in/hr0.0 mm/hr 0.00 in0.0 mm
02:08 AM 32.0°F0.0°C 26.9°F-2.8°C 81% 4.5 mph N7.2 kmh N 9.8 mph15.8 kmh 30.02 in1016.6 mb 0.00 in0.0 mm 0.00 in/hr0.0 mm/hr 0.00 in0.0 mm
02:07 AM 32.0°F0.0°C 26.9°F-2.8°C 81% 4.5 mph N7.2 kmh N 9.8 mph15.8 kmh 30.02 in1016.6 mb 0.00 in0.0 mm 0.00 in/hr0.0 mm/hr 0.00 in0.0 mm
02:06 AM 32.0°F0.0°C 26.9°F-2.8°C 81% 3.8 mph N6.1 kmh N 9.8 mph15.8 kmh 30.02 in1016.6 mb 0.00 in0.0 mm 0.00 in/hr0.0 mm/hr 0.00 in0.0 mm
02:05 AM 32.0°F0.0°C 26.9°F-2.8°C 81% 4.5 mph N7.2 kmh N 10.7 mph17.2 kmh 30.02 in1016.6 mb 0.00 in0.0 mm 0.00 in/hr0.0 mm/hr 0.00 in0.0 mm
02:04 AM 32.2°F0.1°C 27.0°F-2.8°C 81% 4.5 mph N7.2 kmh N 10.7 mph17.2 kmh 30.02 in1016.6 mb 0.00 in0.0 mm 0.00 in/hr0.0 mm/hr 0.00 in0.0 mm
02:03 AM 32.4°F0.2°C 27.2°F-2.7°C 81% 5.4 mph N8.7 kmh N 10.7 mph17.2 kmh 30.02 in1016.6 mb 0.00 in0.0 mm 0.00 in/hr0.0 mm/hr 0.00 in0.0 mm
02:02 AM 32.2°F0.1°C 27.0°F-2.8°C 81% 6.9 mph N11.1 kmh N 10.7 mph17.2 kmh 30.02 in1016.6 mb 0.00 in0.0 mm 0.00 in/hr0.0 mm/hr 0.00 in0.0 mm
02:01 AM 32.2°F0.1°C 27.0°F-2.8°C 81% 5.4 mph N8.7 kmh N 10.7 mph17.2 kmh 30.02 in1016.6 mb 0.00 in0.0 mm 0.00 in/hr0.0 mm/hr 0.00 in0.0 mm
02:00 AM 32.2°F0.1°C 27.0°F-2.8°C 81% 6.0 mph N9.7 kmh N 10.7 mph17.2 kmh 30.02 in1016.6 mb 0.00 in0.0 mm 0.00 in/hr0.0 mm/hr 0.00 in0.0 mm
01:59 AM 32.4°F0.2°C 27.2°F-2.7°C 81% 3.1 mph N5.0 kmh N 10.7 mph17.2 kmh 30.02 in1016.6 mb 0.00 in0.0 mm 0.00 in/hr0.0 mm/hr 0.00 in0.0 mm
01:58 AM 32.5°F0.3°C 27.4°F-2.6°C 81% 5.4 mph N8.7 kmh N 10.7 mph17.2 kmh 30.02 in1016.6 mb 0.00 in0.0 mm 0.00 in/hr0.0 mm/hr 0.00 in0.0 mm
01:57 AM 32.5°F0.3°C 27.4°F-2.6°C 81% 6.0 mph N9.7 kmh N 10.7 mph17.2 kmh 30.02 in1016.6 mb 0.00 in0.0 mm 0.00 in/hr0.0 mm/hr 0.00 in0.0 mm
01:56 AM 32.5°F0.3°C 27.7°F-2.4°C 82% 6.9 mph NNW11.1 kmh NNW 10.7 mph17.2 kmh 30.02 in1016.6 mb 0.00 in0.0 mm 0.00 in/hr0.0 mm/hr 0.00 in0.0 mm
01:55 AM 32.4°F0.2°C 27.5°F-2.5°C 82% 6.9 mph NNW11.1 kmh NNW 10.7 mph17.2 kmh 30.02 in1016.6 mb 0.00 in0.0 mm 0.00 in/hr0.0 mm/hr 0.00 in0.0 mm
01:54 AM 32.4°F0.2°C 27.5°F-2.5°C 82% 6.0 mph NNW9.7 kmh NNW 9.8 mph15.8 kmh 30.02 in1016.6 mb 0.00 in0.0 mm 0.00 in/hr0.0 mm/hr 0.00 in0.0 mm
01:53 AM 32.4°F0.2°C 27.5°F-2.5°C 82% 5.4 mph NNW8.7 kmh NNW 10.7 mph17.2 kmh 30.02 in1016.6 mb 0.00 in0.0 mm 0.00 in/hr0.0 mm/hr 0.00 in0.0 mm
01:52 AM 32.4°F0.2°C 27.5°F-2.5°C 82% 4.5 mph NNW7.2 kmh NNW 10.7 mph17.2 kmh 30.02 in1016.6 mb 0.00 in0.0 mm 0.00 in/hr0.0 mm/hr 0.00 in0.0 mm
01:51 AM 32.5°F0.3°C 27.7°F-2.4°C 82% 5.4 mph NNW8.7 kmh NNW 10.7 mph17.2 kmh 30.02 in1016.6 mb 0.00 in0.0 mm 0.00 in/hr0.0 mm/hr 0.00 in0.0 mm
01:50 AM 32.4°F0.2°C 27.5°F-2.5°C 82% 6.0 mph N9.7 kmh N 10.7 mph17.2 kmh 30.02 in1016.6 mb 0.00 in0.0 mm 0.00 in/hr0.0 mm/hr 0.00 in0.0 mm
01:49 AM 32.4°F0.2°C 27.8°F-2.3°C 83% 6.0 mph N9.7 kmh N 10.7 mph17.2 kmh 30.02 in1016.6 mb 0.00 in0.0 mm 0.00 in/hr0.0 mm/hr 0.00 in0.0 mm
01:48 AM 32.4°F0.2°C 27.8°F-2.3°C 83% 4.5 mph N7.2 kmh N 10.7 mph17.2 kmh 30.02 in1016.6 mb 0.00 in0.0 mm 0.00 in/hr0.0 mm/hr 0.00 in0.0 mm
01:47 AM 32.5°F0.3°C 28.0°F-2.2°C 83% 5.4 mph N8.7 kmh N 10.7 mph17.2 kmh 30.02 in1016.6 mb 0.00 in0.0 mm 0.00 in/hr0.0 mm/hr 0.00 in0.0 mm
01:46 AM 32.4°F0.2°C 27.8°F-2.3°C 83% 6.9 mph N11.1 kmh N 10.7 mph17.2 kmh 30.02 in1016.6 mb 0.00 in0.0 mm 0.00 in/hr0.0 mm/hr 0.00 in0.0 mm
01:45 AM 32.5°F0.3°C 28.0°F-2.2°C 83% 4.5 mph N7.2 kmh N 10.7 mph17.2 kmh 30.02 in1016.6 mb 0.00 in0.0 mm 0.00 in/hr0.0 mm/hr 0.00 in0.0 mm
01:44 AM 32.5°F0.3°C 28.0°F-2.2°C 83% 6.0 mph N9.7 kmh N 11.4 mph18.3 kmh 30.02 in1016.6 mb 0.00 in0.0 mm 0.00 in/hr0.0 mm/hr 0.00 in0.0 mm
01:43 AM 32.5°F0.3°C 28.0°F-2.2°C 83% 5.4 mph N8.7 kmh N 11.4 mph18.3 kmh 30.02 in1016.6 mb 0.00 in0.0 mm 0.00 in/hr0.0 mm/hr 0.00 in0.0 mm
01:42 AM 32.7°F0.4°C 28.1°F-2.2°C 83% 5.4 mph N8.7 kmh N 11.4 mph18.3 kmh 30.02 in1016.6 mb 0.00 in0.0 mm 0.00 in/hr0.0 mm/hr 0.00 in0.0 mm
01:41 AM 32.7°F0.4°C 28.7°F-1.8°C 85% 4.5 mph N7.2 kmh N 11.4 mph18.3 kmh 30.02 in1016.6 mb 0.00 in0.0 mm 0.00 in/hr0.0 mm/hr 0.00 in0.0 mm
01:40 AM 32.7°F0.4°C 28.7°F-1.8°C 85% 5.4 mph NNW8.7 kmh NNW 11.4 mph18.3 kmh 30.02 in1016.6 mb 0.00 in0.0 mm 0.00 in/hr0.0 mm/hr 0.00 in0.0 mm
01:39 AM 32.7°F0.4°C 28.7°F-1.8°C 85% 3.8 mph NNW6.1 kmh NNW 11.4 mph18.3 kmh 30.02 in1016.6 mb 0.00 in0.0 mm 0.00 in/hr0.0 mm/hr 0.00 in0.0 mm
01:38 AM 32.9°F0.5°C 29.2°F-1.6°C 86% 4.5 mph N7.2 kmh N 11.4 mph18.3 kmh 30.02 in1016.6 mb 0.00 in0.0 mm 0.00 in/hr0.0 mm/hr 0.00 in0.0 mm
01:37 AM 33.1°F0.6°C 29.4°F-1.4°C 86% 5.4 mph NNW8.7 kmh NNW 11.4 mph18.3 kmh 30.02 in1016.6 mb 0.00 in0.0 mm 0.00 in/hr0.0 mm/hr 0.00 in0.0 mm
01:36 AM 33.1°F0.6°C 29.6°F-1.3°C 87% 5.4 mph N8.7 kmh N 11.4 mph18.3 kmh 30.02 in1016.6 mb 0.00 in0.0 mm 0.00 in/hr0.0 mm/hr 0.00 in0.0 mm
01:35 AM 32.9°F0.5°C 29.8°F-1.2°C 88% 9.2 mph N14.8 kmh N 11.4 mph18.3 kmh 30.02 in1016.6 mb 0.00 in0.0 mm 0.00 in/hr0.0 mm/hr 0.00 in0.0 mm
01:34 AM 32.9°F0.5°C 29.8°F-1.2°C 88% 6.9 mph N11.1 kmh N 8.3 mph13.4 kmh 30.02 in1016.6 mb 0.00 in0.0 mm 0.00 in/hr0.0 mm/hr 0.00 in0.0 mm
01:33 AM 32.9°F0.5°C 30.3°F-0.9°C 90% 5.4 mph N8.7 kmh N 8.3 mph13.4 kmh 30.02 in1016.6 mb 0.00 in0.0 mm 0.00 in/hr0.0 mm/hr 0.00 in0.0 mm
01:32 AM 32.9°F0.5°C 30.3°F-0.9°C 90% 4.5 mph NNW7.2 kmh NNW 8.3 mph13.4 kmh 30.02 in1016.6 mb 0.00 in0.0 mm 0.00 in/hr0.0 mm/hr 0.00 in0.0 mm
01:31 AM 33.1°F0.6°C 30.8°F-0.7°C 91% 6.0 mph N9.7 kmh N 8.3 mph13.4 kmh 30.01 in1016.3 mb 0.00 in0.0 mm 0.00 in/hr0.0 mm/hr 0.00 in0.0 mm
01:30 AM 33.1°F0.6°C 30.8°F-0.7°C 91% 5.4 mph N8.7 kmh N 8.3 mph13.4 kmh 30.02 in1016.6 mb 0.00 in0.0 mm 0.00 in/hr0.0 mm/hr 0.00 in0.0 mm
01:29 AM 32.9°F0.5°C 31.1°F-0.5°C 93% 3.8 mph N6.1 kmh N 8.3 mph13.4 kmh 30.02 in1016.6 mb 0.00 in0.0 mm 0.00 in/hr0.0 mm/hr 0.00 in0.0 mm
01:28 AM 32.9°F0.5°C 31.1°F-0.5°C 93% 3.8 mph N6.1 kmh N 8.3 mph13.4 kmh 30.01 in1016.3 mb 0.00 in0.0 mm 0.00 in/hr0.0 mm/hr 0.00 in0.0 mm
01:27 AM 32.9°F0.5°C 31.1°F-0.5°C 93% 4.5 mph N7.2 kmh N 8.3 mph13.4 kmh 30.02 in1016.6 mb 0.00 in0.0 mm 0.00 in/hr0.0 mm/hr 0.00 in0.0 mm
01:26 AM 32.9°F0.5°C 31.6°F-0.2°C 95% 3.8 mph N6.1 kmh N 8.3 mph13.4 kmh 30.01 in1016.3 mb 0.00 in0.0 mm 0.00 in/hr0.0 mm/hr 0.00 in0.0 mm
01:25 AM 33.1°F0.6°C 31.8°F-0.1°C 95% 4.5 mph NNW7.2 kmh NNW 8.3 mph13.4 kmh 30.01 in1016.3 mb 0.00 in0.0 mm 0.00 in/hr0.0 mm/hr 0.00 in0.0 mm
01:24 AM 33.1°F0.6°C 32.1°F0.1°C 96% 4.5 mph NNW7.2 kmh NNW 8.3 mph13.4 kmh 30.01 in1016.3 mb 0.00 in0.0 mm 0.00 in/hr0.0 mm/hr 0.00 in0.0 mm
01:23 AM 32.9°F0.5°C 32.2°F0.1°C 97% 5.4 mph NNW8.7 kmh NNW 8.3 mph13.4 kmh 30.01 in1016.3 mb 0.00 in0.0 mm 0.00 in/hr0.0 mm/hr 0.00 in0.0 mm
01:22 AM 32.7°F0.4°C 32.0°F0.0°C 97% 5.4 mph NNW8.7 kmh NNW 8.3 mph13.4 kmh 30.01 in1016.3 mb 0.00 in0.0 mm 0.00 in/hr0.0 mm/hr 0.00 in0.0 mm
01:21 AM 32.9°F0.5°C 32.4°F0.2°C 98% 4.5 mph NNW7.2 kmh NNW 8.3 mph13.4 kmh 30.01 in1016.3 mb 0.00 in0.0 mm 0.00 in/hr0.0 mm/hr 0.00 in0.0 mm
01:20 AM 32.9°F0.5°C 32.9°F0.5°C 100% 5.4 mph NNW8.7 kmh NNW 8.3 mph13.4 kmh 30.01 in1016.3 mb 0.00 in0.0 mm 0.00 in/hr0.0 mm/hr 0.00 in0.0 mm
01:19 AM 32.9°F0.5°C 32.9°F0.5°C 100% 4.5 mph NNW7.2 kmh NNW 7.6 mph12.2 kmh 30.01 in1016.3 mb 0.00 in0.0 mm 0.00 in/hr0.0 mm/hr 0.00 in0.0 mm
01:18 AM 32.7°F0.4°C 32.7°F0.4°C 100% 4.5 mph NW7.2 kmh NW 7.6 mph12.2 kmh 30.01 in1016.3 mb 0.00 in0.0 mm 0.00 in/hr0.0 mm/hr 0.00 in0.0 mm
01:17 AM 32.7°F0.4°C 32.7°F0.4°C 100% 3.8 mph NW6.1 kmh NW 6.9 mph11.1 kmh 30.01 in1016.3 mb 0.00 in0.0 mm 0.00 in/hr0.0 mm/hr 0.00 in0.0 mm
01:16 AM 32.7°F0.4°C 32.7°F0.4°C 100% 3.8 mph NW6.1 kmh NW 6.9 mph11.1 kmh 30.01 in1016.3 mb 0.00 in0.0 mm 0.00 in/hr0.0 mm/hr 0.00 in0.0 mm
01:15 AM 32.5°F0.3°C 32.5°F0.3°C 100% 4.5 mph NNW7.2 kmh NNW 6.9 mph11.1 kmh 30.01 in1016.3 mb 0.00 in0.0 mm 0.00 in/hr0.0 mm/hr 0.00 in0.0 mm
01:14 AM 32.5°F0.3°C 32.5°F0.3°C 100% 4.5 mph NNW7.2 kmh NNW 6.9 mph11.1 kmh 30.01 in1016.3 mb 0.00 in0.0 mm 0.00 in/hr0.0 mm/hr 0.00 in0.0 mm
01:13 AM 32.5°F0.3°C 32.5°F0.3°C 100% 2.2 mph NNW3.5 kmh NNW 6.9 mph11.1 kmh 30.01 in1016.3 mb 0.00 in0.0 mm 0.00 in/hr0.0 mm/hr 0.00 in0.0 mm
01:12 AM 32.5°F0.3°C 32.5°F0.3°C 100% 3.8 mph NNW6.1 kmh NNW 6.9 mph11.1 kmh 30.01 in1016.3 mb 0.00 in0.0 mm 0.00 in/hr0.0 mm/hr 0.00 in0.0 mm
01:11 AM 32.5°F0.3°C 32.5°F0.3°C 100% 3.1 mph NNW5.0 kmh NNW 6.9 mph11.1 kmh 30.01 in1016.3 mb 0.00 in0.0 mm 0.00 in/hr0.0 mm/hr 0.00 in0.0 mm
01:10 AM 32.4°F0.2°C 32.4°F0.2°C 100% 3.8 mph NW6.1 kmh NW 6.9 mph11.1 kmh 30.01 in1016.3 mb 0.00 in0.0 mm 0.00 in/hr0.0 mm/hr 0.00 in0.0 mm
01:09 AM 32.2°F0.1°C 32.2°F0.1°C 100% 3.1 mph NW5.0 kmh NW 5.4 mph8.7 kmh 30.01 in1016.3 mb 0.00 in0.0 mm 0.00 in/hr0.0 mm/hr 0.00 in0.0 mm
01:08 AM 32.2°F0.1°C 32.2°F0.1°C 100% 2.2 mph NNW3.5 kmh NNW 4.5 mph7.2 kmh 30.01 in1016.3 mb 0.00 in0.0 mm 0.00 in/hr0.0 mm/hr 0.00 in0.0 mm
01:07 AM 32.2°F0.1°C 32.2°F0.1°C 100% 2.2 mph NNW3.5 kmh NNW 4.5 mph7.2 kmh 30.01 in1016.3 mb 0.00 in0.0 mm 0.00 in/hr0.0 mm/hr 0.00 in0.0 mm
01:06 AM 32.2°F0.1°C 32.2°F0.1°C 100% 2.2 mph NNW3.5 kmh NNW 4.5 mph7.2 kmh 30.01 in1016.3 mb 0.00 in0.0 mm 0.00 in/hr0.0 mm/hr 0.00 in0.0 mm
01:05 AM 32.2°F0.1°C 32.2°F0.1°C 100% 2.2 mph NNW3.5 kmh NNW 3.8 mph6.1 kmh 30.01 in1016.3 mb 0.00 in0.0 mm 0.00 in/hr0.0 mm/hr 0.00 in0.0 mm
01:04 AM 32.2°F0.1°C 32.2°F0.1°C 100% 2.2 mph NNW3.5 kmh NNW 3.8 mph6.1 kmh 30.01 in1016.3 mb 0.00 in0.0 mm 0.00 in/hr0.0 mm/hr 0.00 in0.0 mm
01:03 AM 32.2°F0.1°C 32.2°F0.1°C 100% 1.6 mph NNW2.6 kmh NNW 3.8 mph6.1 kmh 30.01 in1016.3 mb 0.00 in0.0 mm 0.00 in/hr0.0 mm/hr 0.00 in0.0 mm
01:02 AM 32.0°F0.0°C 32.0°F0.0°C 100% 2.2 mph NNW3.5 kmh NNW 3.8 mph6.1 kmh 30.01 in1016.3 mb 0.00 in0.0 mm 0.00 in/hr0.0 mm/hr 0.00 in0.0 mm
01:01 AM 32.0°F0.0°C 32.0°F0.0°C 100% 0.7 mph NNW1.1 kmh NNW 3.1 mph5.0 kmh 30.01 in1016.3 mb 0.00 in0.0 mm 0.00 in/hr0.0 mm/hr 0.00 in0.0 mm
01:00 AM 32.0°F0.0°C 32.0°F0.0°C 100% 0.7 mph NNW1.1 kmh NNW 3.1 mph5.0 kmh 30.01 in1016.3 mb 0.00 in0.0 mm 0.00 in/hr0.0 mm/hr 0.00 in0.0 mm
12:59 AM 32.0°F0.0°C 32.0°F0.0°C 100% 0.7 mph NNW1.1 kmh NNW 5.4 mph8.7 kmh 30.00 in1015.9 mb 0.00 in0.0 mm 0.00 in/hr0.0 mm/hr 0.00 in0.0 mm
12:58 AM 32.0°F0.0°C 32.0°F0.0°C 100% 1.6 mph N2.6 kmh N 6.9 mph11.1 kmh 30.01 in1016.3 mb 0.00 in0.0 mm 0.00 in/hr0.0 mm/hr 0.00 in0.0 mm
12:57 AM 32.2°F0.1°C 32.2°F0.1°C 100% 0.7 mph N1.1 kmh N 6.9 mph11.1 kmh 30.01 in1016.3 mb 0.00 in0.0 mm 0.00 in/hr0.0 mm/hr 0.00 in0.0 mm
12:56 AM 32.2°F0.1°C 32.2°F0.1°C 100% 0.7 mph N1.1 kmh N 6.9 mph11.1 kmh 30.01 in1016.3 mb 0.00 in0.0 mm 0.00 in/hr0.0 mm/hr 0.00 in0.0 mm
12:55 AM 32.2°F0.1°C 32.2°F0.1°C 100% 0.7 mph N1.1 kmh N 6.9 mph11.1 kmh 30.01 in1016.3 mb 0.00 in0.0 mm 0.00 in/hr0.0 mm/hr 0.00 in0.0 mm
12:54 AM 32.2°F0.1°C 32.2°F0.1°C 100% 0.7 mph NNE1.1 kmh NNE 6.9 mph11.1 kmh 30.01 in1016.3 mb 0.00 in0.0 mm 0.00 in/hr0.0 mm/hr 0.00 in0.0 mm
12:53 AM 32.2°F0.1°C 32.2°F0.1°C 100% 1.6 mph NNE2.6 kmh NNE 6.9 mph11.1 kmh 30.01 in1016.3 mb 0.00 in0.0 mm 0.00 in/hr0.0 mm/hr 0.00 in0.0 mm
12:52 AM 32.2°F0.1°C 32.2°F0.1°C 100% 1.6 mph NNE2.6 kmh NNE 6.9 mph11.1 kmh 30.00 in1015.9 mb 0.00 in0.0 mm 0.00 in/hr0.0 mm/hr 0.00 in0.0 mm
12:51 AM 32.2°F0.1°C 32.2°F0.1°C 100% 0.7 mph NNE1.1 kmh NNE 6.9 mph11.1 kmh 30.00 in1015.9 mb 0.00 in0.0 mm 0.00 in/hr0.0 mm/hr 0.00 in0.0 mm
12:50 AM 32.2°F0.1°C 32.2°F0.1°C 100% 1.6 mph NNE2.6 kmh NNE 6.9 mph11.1 kmh 30.00 in1015.9 mb 0.00 in0.0 mm 0.00 in/hr0.0 mm/hr 0.00 in0.0 mm
12:49 AM 32.0°F0.0°C 32.0°F0.0°C 100% 5.4 mph NNE8.7 kmh NNE 6.9 mph11.1 kmh 30.01 in1016.3 mb 0.00 in0.0 mm 0.00 in/hr0.0 mm/hr 0.00 in0.0 mm
12:48 AM 32.0°F0.0°C 32.0°F0.0°C 100% 0.7 mph N1.1 kmh N 3.8 mph6.1 kmh 30.01 in1016.3 mb 0.00 in0.0 mm 0.00 in/hr0.0 mm/hr 0.00 in0.0 mm
12:47 AM 31.8°F-0.1°C 31.8°F-0.1°C 100% 0.7 mph N1.1 kmh N 3.8 mph6.1 kmh 30.01 in1016.3 mb 0.00 in0.0 mm 0.00 in/hr0.0 mm/hr 0.00 in0.0 mm
12:46 AM 31.8°F-0.1°C 31.8°F-0.1°C 100% 1.6 mph N2.6 kmh N 3.8 mph6.1 kmh 30.01 in1016.3 mb 0.00 in0.0 mm 0.00 in/hr0.0 mm/hr 0.00 in0.0 mm
12:45 AM 31.6°F-0.2°C 31.6°F-0.2°C 100% 1.6 mph N2.6 kmh N 3.8 mph6.1 kmh 30.01 in1016.3 mb 0.00 in0.0 mm 0.00 in/hr0.0 mm/hr 0.00 in0.0 mm
12:44 AM 31.6°F-0.2°C 31.6°F-0.2°C 100% 1.6 mph N2.6 kmh N 3.8 mph6.1 kmh 30.01 in1016.3 mb 0.00 in0.0 mm 0.00 in/hr0.0 mm/hr 0.00 in0.0 mm
12:43 AM 31.6°F-0.2°C 31.6°F-0.2°C 100% 0.7 mph N1.1 kmh N 3.8 mph6.1 kmh 30.01 in1016.3 mb 0.00 in0.0 mm 0.00 in/hr0.0 mm/hr 0.00 in0.0 mm
12:42 AM 31.8°F-0.1°C 31.8°F-0.1°C 100% 1.6 mph N2.6 kmh N 3.8 mph6.1 kmh 30.01 in1016.3 mb 0.00 in0.0 mm 0.00 in/hr0.0 mm/hr 0.00 in0.0 mm
12:41 AM 31.6°F-0.2°C 31.6°F-0.2°C 100% 1.6 mph NNW2.6 kmh NNW 4.5 mph7.2 kmh 30.01 in1016.3 mb 0.00 in0.0 mm 0.00 in/hr0.0 mm/hr 0.00 in0.0 mm
12:40 AM 31.6°F-0.2°C 31.6°F-0.2°C 100% 2.2 mph NNW3.5 kmh NNW 5.4 mph8.7 kmh 30.01 in1016.3 mb 0.00 in0.0 mm 0.00 in/hr0.0 mm/hr 0.00 in0.0 mm
12:39 AM 31.6°F-0.2°C 31.6°F-0.2°C 100% 2.2 mph NNW3.5 kmh NNW 5.4 mph8.7 kmh 30.01 in1016.3 mb 0.00 in0.0 mm 0.00 in/hr0.0 mm/hr 0.00 in0.0 mm
12:38 AM 31.6°F-0.2°C 31.6°F-0.2°C 100% 2.2 mph NNW3.5 kmh NNW 5.4 mph8.7 kmh 30.01 in1016.3 mb 0.00 in0.0 mm 0.00 in/hr0.0 mm/hr 0.00 in0.0 mm
12:37 AM 31.5°F-0.3°C 31.5°F-0.3°C 100% 2.2 mph NNW3.5 kmh NNW 5.4 mph8.7 kmh 30.01 in1016.3 mb 0.00 in0.0 mm 0.00 in/hr0.0 mm/hr 0.00 in0.0 mm
12:36 AM 31.5°F-0.3°C 31.5°F-0.3°C 100% 1.6 mph NNW2.6 kmh NNW 5.4 mph8.7 kmh 30.01 in1016.3 mb 0.00 in0.0 mm 0.00 in/hr0.0 mm/hr 0.00 in0.0 mm
12:35 AM 31.5°F-0.3°C 31.5°F-0.3°C 100% 0.7 mph NNW1.1 kmh NNW 5.4 mph8.7 kmh 30.01 in1016.3 mb 0.00 in0.0 mm 0.00 in/hr0.0 mm/hr 0.00 in0.0 mm
12:34 AM 31.5°F-0.3°C 31.5°F-0.3°C 100% 0.7 mph NNW1.1 kmh NNW 5.4 mph8.7 kmh 30.01 in1016.3 mb 0.00 in0.0 mm 0.00 in/hr0.0 mm/hr 0.00 in0.0 mm
12:33 AM 31.5°F-0.3°C 31.5°F-0.3°C 100% 0.7 mph NNW1.1 kmh NNW 5.4 mph8.7 kmh 30.01 in1016.3 mb 0.00 in0.0 mm 0.00 in/hr0.0 mm/hr 0.00 in0.0 mm
12:32 AM 31.5°F-0.3°C 31.5°F-0.3°C 100% 2.2 mph NNW3.5 kmh NNW 5.4 mph8.7 kmh 30.01 in1016.3 mb 0.00 in0.0 mm 0.00 in/hr0.0 mm/hr 0.00 in0.0 mm
12:31 AM 31.5°F-0.3°C 31.5°F-0.3°C 100% 1.6 mph NNW2.6 kmh NNW 5.4 mph8.7 kmh 30.01 in1016.3 mb 0.00 in0.0 mm 0.00 in/hr0.0 mm/hr 0.00 in0.0 mm
12:30 AM 31.5°F-0.3°C 31.5°F-0.3°C 100% 2.2 mph NNW3.5 kmh NNW 5.4 mph8.7 kmh 30.01 in1016.3 mb 0.00 in0.0 mm 0.00 in/hr0.0 mm/hr 0.00 in0.0 mm
12:29 AM 31.5°F-0.3°C 31.5°F-0.3°C 100% 2.2 mph NNW3.5 kmh NNW 3.8 mph6.1 kmh 30.01 in1016.3 mb 0.00 in0.0 mm 0.00 in/hr0.0 mm/hr 0.00 in0.0 mm
12:28 AM 31.5°F-0.3°C 31.5°F-0.3°C 100% 0.7 mph NNW1.1 kmh NNW 3.8 mph6.1 kmh 30.01 in1016.3 mb 0.00 in0.0 mm 0.00 in/hr0.0 mm/hr 0.00 in0.0 mm
12:27 AM 31.5°F-0.3°C 31.5°F-0.3°C 100% 1.6 mph NNW2.6 kmh NNW 3.8 mph6.1 kmh 30.01 in1016.3 mb 0.00 in0.0 mm 0.00 in/hr0.0 mm/hr 0.00 in0.0 mm
12:26 AM 31.3°F-0.4°C 31.3°F-0.4°C 100% 2.2 mph NNW3.5 kmh NNW 3.8 mph6.1 kmh 30.01 in1016.3 mb 0.00 in0.0 mm 0.00 in/hr0.0 mm/hr 0.00 in0.0 mm
12:25 AM 31.3°F-0.4°C 31.3°F-0.4°C 100% 0.7 mph NNW1.1 kmh NNW 3.1 mph5.0 kmh 30.01 in1016.3 mb 0.00 in0.0 mm 0.00 in/hr0.0 mm/hr 0.00 in0.0 mm
12:24 AM 31.3°F-0.4°C 31.3°F-0.4°C 100% 0.7 mph NNW1.1 kmh NNW 3.1 mph5.0 kmh 30.01 in1016.3 mb 0.00 in0.0 mm 0.00 in/hr0.0 mm/hr 0.00 in0.0 mm
12:23 AM 31.3°F-0.4°C 31.3°F-0.4°C 100% 0.7 mph NNW1.1 kmh NNW 3.1 mph5.0 kmh 30.01 in1016.3 mb 0.00 in0.0 mm 0.00 in/hr0.0 mm/hr 0.00 in0.0 mm
12:22 AM 31.3°F-0.4°C 31.3°F-0.4°C 100% 0.7 mph NNW1.1 kmh NNW 3.1 mph5.0 kmh 30.00 in1015.9 mb 0.00 in0.0 mm 0.00 in/hr0.0 mm/hr 0.00 in0.0 mm
12:21 AM 31.3°F-0.4°C 31.3°F-0.4°C 100% 0.7 mph NNW1.1 kmh NNW 3.1 mph5.0 kmh 30.00 in1015.9 mb 0.00 in0.0 mm 0.00 in/hr0.0 mm/hr 0.00 in0.0 mm
12:20 AM 31.5°F-0.3°C 31.5°F-0.3°C 100% Calm Calm 1.6 mph2.6 kmh 30.00 in1015.9 mb 0.00 in0.0 mm 0.00 in/hr0.0 mm/hr 0.00 in0.0 mm
12:19 AM 31.3°F-0.4°C 31.3°F-0.4°C 100% 0.7 mph NNW1.1 kmh NNW 1.6 mph2.6 kmh 30.00 in1015.9 mb 0.00 in0.0 mm 0.00 in/hr0.0 mm/hr 0.00 in0.0 mm
12:18 AM 31.3°F-0.4°C 31.3°F-0.4°C 100% Calm Calm 1.6 mph2.6 kmh 30.01 in1016.3 mb 0.00 in0.0 mm 0.00 in/hr0.0 mm/hr 0.00 in0.0 mm
12:17 AM 31.3°F-0.4°C 31.3°F-0.4°C 100% Calm Calm 1.6 mph2.6 kmh 30.00 in1015.9 mb 0.00 in0.0 mm 0.00 in/hr0.0 mm/hr 0.00 in0.0 mm
12:16 AM 31.3°F-0.4°C 31.3°F-0.4°C 100% Calm Calm 1.6 mph2.6 kmh 30.01 in1016.3 mb 0.00 in0.0 mm 0.00 in/hr0.0 mm/hr 0.00 in0.0 mm
12:15 AM 31.3°F-0.4°C 31.3°F-0.4°C 100% Calm Calm 1.6 mph2.6 kmh 30.01 in1016.3 mb 0.00 in0.0 mm 0.00 in/hr0.0 mm/hr 0.00 in0.0 mm
12:14 AM 31.3°F-0.4°C 31.3°F-0.4°C 100% Calm Calm 1.6 mph2.6 kmh 30.01 in1016.3 mb 0.00 in0.0 mm 0.00 in/hr0.0 mm/hr 0.00 in0.0 mm
12:13 AM 31.3°F-0.4°C 31.3°F-0.4°C 100% Calm Calm 1.6 mph2.6 kmh 30.01 in1016.3 mb 0.00 in0.0 mm 0.00 in/hr0.0 mm/hr 0.00 in0.0 mm
12:12 AM 31.3°F-0.4°C 31.3°F-0.4°C 100% Calm Calm 1.6 mph2.6 kmh 30.01 in1016.3 mb 0.00 in0.0 mm 0.00 in/hr0.0 mm/hr 0.00 in0.0 mm
12:11 AM 31.3°F-0.4°C 31.3°F-0.4°C 100% Calm Calm 1.6 mph2.6 kmh 30.01 in1016.3 mb 0.00 in0.0 mm 0.00 in/hr0.0 mm/hr 0.00 in0.0 mm
12:10 AM 31.3°F-0.4°C 31.3°F-0.4°C 100% Calm Calm 1.6 mph2.6 kmh 30.01 in1016.3 mb 0.00 in0.0 mm 0.00 in/hr0.0 mm/hr 0.00 in0.0 mm
12:09 AM 31.3°F-0.4°C 31.3°F-0.4°C 100% Calm Calm 1.6 mph2.6 kmh 30.01 in1016.3 mb 0.00 in0.0 mm 0.00 in/hr0.0 mm/hr 0.00 in0.0 mm
12:08 AM 31.1°F-0.5°C 31.1°F-0.5°C 100% Calm Calm 1.6 mph2.6 kmh 30.01 in1016.3 mb 0.00 in0.0 mm 0.00 in/hr0.0 mm/hr 0.00 in0.0 mm
12:07 AM 31.1°F-0.5°C 31.1°F-0.5°C 100% Calm Calm 1.6 mph2.6 kmh 30.00 in1015.9 mb 0.00 in0.0 mm 0.00 in/hr0.0 mm/hr 0.00 in0.0 mm
12:06 AM 31.1°F-0.5°C 31.1°F-0.5°C 100% Calm Calm 2.2 mph3.5 kmh 30.00 in1015.9 mb 0.00 in0.0 mm 0.00 in/hr0.0 mm/hr 0.00 in0.0 mm
12:05 AM 30.9°F-0.6°C 30.9°F-0.6°C 100% 0.7 mph NNW1.1 kmh NNW 2.2 mph3.5 kmh 30.01 in1016.3 mb 0.00 in0.0 mm 0.00 in/hr0.0 mm/hr 0.00 in0.0 mm
12:04 AM 30.9°F-0.6°C 30.9°F-0.6°C 100% Calm Calm 2.2 mph3.5 kmh 30.01 in1016.3 mb 0.00 in0.0 mm 0.00 in/hr0.0 mm/hr 0.00 in0.0 mm
12:03 AM 30.9°F-0.6°C 30.9°F-0.6°C 100% Calm Calm 2.2 mph3.5 kmh 30.01 in1016.3 mb 0.00 in0.0 mm 0.00 in/hr0.0 mm/hr 0.00 in0.0 mm
12:02 AM 30.9°F-0.6°C 30.9°F-0.6°C 100% Calm Calm 2.2 mph3.5 kmh 30.01 in1016.3 mb 0.00 in0.0 mm 0.00 in/hr0.0 mm/hr 0.00 in0.0 mm
12:01 AM 30.6°F-0.8°C 30.6°F-0.8°C 100% Calm Calm 2.2 mph3.5 kmh 30.01 in1016.3 mb 0.00 in0.0 mm 0.00 in/hr0.0 mm/hr 0.00 in0.0 mm
12:00 AM 30.6°F-0.8°C 30.6°F-0.8°C 100% Calm Calm 2.2 mph3.5 kmh 30.00 in1015.9 mb 0.00 in0.0 mm 0.00 in/hr0.0 mm/hr 0.59 in15.0 mm